Flight Track Log - Related Links

Times and Time Zones

All times are in EDT time to prevent confusion due to time zone crossing. See the DAL268 flight status page for this flight to view local times or setup timezone preferences in your user account.

Time Position Orientation Groundspeed Altitude Reporting Facility
EDT Latitude Longitude Course Direction KTS MPH feet Rate Location/Type
Mon 11:46:07 PM 40.6070 -73.7630 119° Southeast 180 207 700  Level FlightAware ADS-B
Mon 11:46:22 PM 40.6060 -73.7480 95° East 183 211 1,100 1,050 Climbing FlightAware ADS-B
Mon 11:46:47 PM 40.6050 -73.7190 93° East 211 243 1,400 900 Climbing FlightAware ADS-B
Mon 11:47:02 PM 40.6040 -73.6990 94° East 222 255 1,700 900 Climbing FlightAware ADS-B
Mon 11:47:27 PM 40.6080 -73.6620 82° East 248 285 2,000 900 Climbing FlightAware ADS-B
Mon 11:47:42 PM 40.6170 -73.6410 61° Northeast 259 298 2,300 1,200 Climbing FlightAware ADS-B
Mon 11:48:12 PM 40.6430 -73.6070 45° Northeast 283 326 2,900 1,500 Climbing FlightAware ADS-B
Mon 11:48:42 PM 40.6720 -73.5700 44° Northeast 293 337 3,800 2,073 Climbing FlightAware ADS-B
Mon 11:49:07 PM 40.6960 -73.5400 43° Northeast 294 338 4,800 2,073 Climbing FlightAware ADS-B
Mon 11:49:37 PM 40.7270 -73.5020 43° Northeast 306 352 5,700 2,073 Climbing FlightAware ADS-B
Mon 11:50:02 PM 40.7560 -73.4710 39° Northeast 306 352 6,700 2,250 Climbing FlightAware ADS-B
Mon 11:50:17 PM 40.7730 -73.4580 30° Northeast 311 358 7,200 2,000 Climbing FlightAware ADS-B
Mon 11:50:47 PM 40.8130 -73.4360 23° Northeast 313 360 8,200 1,964 Climbing FlightAware ADS-B
Mon 11:51:12 PM 40.8480 -73.4180 21° North 319 367 9,000 1,800 Climbing FlightAware ADS-B
Mon 11:51:57 PM 40.9100 -73.3880 47° Northeast 332 382 10,300 1,341 Climbing FlightAware ADS-B
Mon 11:52:37 PM 40.9720 -73.3550 22° Northeast 361 415 10,900 918 Climbing FlightAware ADS-B
Mon 11:53:22 PM 41.0440 -73.3170 22° Northeast 393 452 11,600 1,200 Climbing FlightAware ADS-B
Mon 11:54:02 PM 41.1120 -73.2810 22° Northeast 406 467 12,600 1,650 Climbing FlightAware ADS-B
Mon 11:54:42 PM 41.1780 -73.2370 27° Northeast 416 479 13,800 1,855 Climbing FlightAware ADS-B
Mon 11:54:57 PM 41.2040 -73.2090 39° Northeast 420 483 14,300 2,000 Climbing FlightAware ADS-B
Mon 11:55:42 PM 41.2620 -73.1210 49° Northeast 426 490 15,800 1,835 Climbing FlightAware ADS-B
Mon 11:56:22 PM 41.3120 -73.0430 50° Northeast 436 502 16,900 880 Climbing FlightAware ADS-B
Mon 11:56:57 PM 41.3540 -72.9800 48° Northeast 436 502 16,900 1,125 Level FlightAware ADS-B
Mon 11:57:42 PM 41.4190 -72.8790 49° Northeast 448 516 18,400 1,059 Climbing FlightAware ADS-B
Mon 11:58:22 PM 41.4650 -72.8080 49° Northeast 448 516 18,400  Level FlightAware ADS-B
Mon 11:59:02 PM 41.5110 -72.7370 49° Northeast 448 516 18,400  Level FlightAware ADS-B
Mon 11:59:52 PM 41.5690 -72.6480 49° Northeast 448 516 18,400  Level FlightAware ADS-B
Tue 12:00:32 AM 41.6150 -72.5770 49° Northeast 448 516 18,400 3,600 Level FlightAware ADS-B
Tue 12:01:07 AM 41.6670 -72.5810 357° North 23,700 6,218 Climbing FlightAware ADS-B
Tue 12:01:27 AM 41.7560 -72.4800 40° Northeast 488 562 24,100 1,114 Climbing FlightAware ADS-B
Tue 12:02:17 AM 41.8540 -72.3690 40° Northeast 495 570 25,000 1,059 Climbing FlightAware ADS-B
Tue 12:03:27 AM 42.0000 -72.2010 41° Northeast 26,400 1,050 Climbing FlightAware ADS-B
Tue 12:04:17 AM 42.0890 -72.1000 40° Northeast 506 582 27,100 1,067 Climbing FlightAware ADS-B
Tue 12:04:57 AM 42.1610 -72.0180 40° Northeast 510 587 28,000 1,341 Climbing FlightAware ADS-B
Tue 12:05:42 AM 42.2430 -71.9240 40° Northeast 508 585 29,000 1,271 Climbing FlightAware ADS-B
Tue 12:06:22 AM 42.3150 -71.8410 40° Northeast 506 582 29,800 1,200 Climbing FlightAware ADS-B
Tue 12:07:07 AM 42.3970 -71.7470 40° Northeast 497 572 30,700 847 Climbing FlightAware ADS-B
Tue 12:07:47 AM 42.4790 -71.6310 46° Northeast 500 575 31,000 225 Climbing FlightAware ADS-B
Tue 12:08:27 AM 42.5480 -71.5490 41° Northeast 499 574 31,000  Level FlightAware ADS-B
Tue 12:09:12 AM 42.6270 -71.4560 41° Northeast 499 574 31,000  Level FlightAware ADS-B
Tue 12:09:52 AM 42.6990 -71.3690 42° Northeast 502 578 31,000  Level FlightAware ADS-B
Tue 12:10:37 AM 42.7770 -71.2760 41° Northeast 503 579 31,000  Level FlightAware ADS-B
Tue 12:11:17 AM 42.8480 -71.1920 41° Northeast 510 587 31,000  Level FlightAware ADS-B
Tue 12:11:57 AM 42.9190 -71.1070 41° Northeast 510 587 31,000  Level FlightAware ADS-B
Tue 12:12:42 AM 42.9950 -71.0140 42° Northeast 511 588 31,000  Level FlightAware ADS-B
Tue 12:13:22 AM 43.0700 -70.9240 41° Northeast 504 580 31,000  Level FlightAware ADS-B
Tue 12:14:07 AM 43.1460 -70.8320 41° Northeast 505 581 31,000  Level FlightAware ADS-B
Tue 12:14:47 AM 43.2190 -70.7440 41° Northeast 505 581 31,000  Level FlightAware ADS-B
Tue 12:15:27 AM 43.2910 -70.6560 42° Northeast 505 581 31,000  Level FlightAware ADS-B
Tue 12:16:12 AM 43.3700 -70.5580 42° Northeast 505 581 31,000  Level FlightAware ADS-B
Tue 12:16:52 AM 43.4400 -70.4720 42° Northeast 504 580 31,000  Level FlightAware ADS-B
Tue 12:17:32 AM 43.5090 -70.3870 42° Northeast 503 579 31,000  Level FlightAware ADS-B
Tue 12:18:17 AM 43.5910 -70.2850 42° Northeast 508 585 31,000  Level FlightAware ADS-B
Tue 12:18:57 AM 43.6590 -70.2010 42° Northeast 507 583 31,000  Level FlightAware ADS-B
Tue 12:19:42 AM 43.7390 -70.1020 42° Northeast 503 579 31,000  Level FlightAware ADS-B
Tue 12:20:22 AM 43.8100 -70.0130 42° Northeast 498 573 31,000  Level FlightAware ADS-B
Tue 12:21:07 AM 43.8840 -69.9190 42° Northeast 497 572 31,000  Level FlightAware ADS-B
Tue 12:21:47 AM 43.9500 -69.8340 43° Northeast 497 572 31,000  Level FlightAware ADS-B
Tue 12:22:27 AM 44.0180 -69.7460 43° Northeast 496 571 31,000  Level FlightAware ADS-B
Tue 12:23:12 AM 44.0960 -69.6460 43° Northeast 496 571 31,000  Level FlightAware ADS-B
Tue 12:23:52 AM 44.1650 -69.5580 42° Northeast 495 570 31,000  Level FlightAware ADS-B
Tue 12:24:32 AM 44.2310 -69.4730 43° Northeast 494 568 31,000  Level FlightAware ADS-B
Tue 12:25:17 AM 44.3050 -69.3790 42° Northeast 493 567 31,000  Level FlightAware ADS-B
Tue 12:26:12 AM 44.3960 -69.2610 43° Northeast 491 565 31,000  Level FlightAware ADS-B
Tue 12:26:57 AM 44.4730 -69.1610 43° Northeast 490 564 31,000  Level FlightAware ADS-B
Tue 12:27:37 AM 44.5400 -69.0730 43° Northeast 490 564 31,000  Level FlightAware ADS-B
Tue 12:28:17 AM 44.6030 -68.9890 43° Northeast 490 564 31,000  Level FlightAware ADS-B
Tue 12:29:02 AM 44.6800 -68.8880 43° Northeast 492 566 31,000  Level FlightAware ADS-B
Tue 12:29:42 AM 44.7450 -68.8010 44° Northeast 491 565 31,000  Level FlightAware ADS-B
Tue 12:30:27 AM 44.8200 -68.7030 43° Northeast 491 565 31,000  Level FlightAware ADS-B
Tue 12:31:07 AM 44.8850 -68.6180 43° Northeast 491 565 31,000  Level FlightAware ADS-B
Tue 12:31:47 AM 44.9550 -68.5270 43° Northeast 490 564 31,000  Level FlightAware ADS-B
Tue 12:32:32 AM 45.0300 -68.4290 43° Northeast 491 565 31,000  Level FlightAware ADS-B
Tue 12:33:17 AM 45.1020 -68.3340 43° Northeast 492 566 31,000  Level FlightAware ADS-B
Tue 12:33:57 AM 45.1700 -68.2440 43° Northeast 491 565 31,000  Level FlightAware ADS-B
Tue 12:34:37 AM 45.2380 -68.1530 43° Northeast 492 566 31,000  Level FlightAware ADS-B
Tue 12:35:37 AM 45.3310 -68.0290 43° Northeast 493 567 31,000  Level FlightAware ADS-B
Tue 12:36:17 AM 45.3980 -67.9390 43° Northeast 488 562 31,000  Level FlightAware ADS-B
Tue 12:36:57 AM 45.4630 -67.8500 44° Northeast 491 565 31,000  Level FlightAware ADS-B
Tue 12:37:42 AM 45.5380 -67.7490 43° Northeast 491 565 31,000  Level FlightAware ADS-B
Tue 12:38:22 AM 45.6060 -67.6580 43° Northeast 491 565 31,000  Level FlightAware ADS-B
Tue 12:39:07 AM 45.6800 -67.5570 44° Northeast 495 570 31,000  Level FlightAware ADS-B
Tue 12:39:47 AM 45.7470 -67.4650 44° Northeast 495 570 31,000  Level FlightAware ADS-B
Tue 12:40:27 AM 45.8130 -67.3740 44° Northeast 495 570 31,000  Level FlightAware ADS-B
Tue 12:41:12 AM 45.8880 -67.2710 44° Northeast 495 570 31,000  Level FlightAware ADS-B
Tue 12:41:52 AM 45.9530 -67.1800 44° Northeast 493 567 31,000  Level FlightAware ADS-B
Tue 12:42:37 AM 46.0270 -67.0790 43° Northeast 492 566 31,000  Level FlightAware ADS-B
Tue 12:43:17 AM 46.0950 -66.9850 44° Northeast 492 566 31,000  Level FlightAware ADS-B
Tue 12:43:47 AM 46.1430 -66.9180 44° Northeast 492 566 31,000  Level FlightAware ADS-B
Tue 12:44:52 AM 46.2490 -66.7700 44° Northeast 491 565 31,000  Level FlightAware ADS-B
Tue 12:45:32 AM 46.3040 -66.6920 44° Northeast 491 565 31,000  Level FlightAware ADS-B
Tue 12:46:12 AM 46.3600 -66.6150 43° Northeast 491 565 31,000  Level FlightAware ADS-B
Tue 12:47:02 AM 46.4290 -66.5170 44° Northeast 491 565 31,000  Level FlightAware ADS-B
Tue 12:47:42 AM 46.4850 -66.4390 44° Northeast 491 565 31,000  Level FlightAware ADS-B
Tue 12:48:22 AM 46.5400 -66.3610 44° Northeast 491 565 31,000  Level FlightAware ADS-B
Tue 12:49:02 AM 46.5960 -66.2830 44° Northeast 491 565 31,000  Level FlightAware ADS-B
Tue 12:49:42 AM 46.6510 -66.2050 44° Northeast 491 565 31,000  Level FlightAware ADS-B
Tue 12:50:32 AM 46.7210 -66.1080 44° Northeast 491 565 31,000  Level FlightAware ADS-B
Tue 12:51:12 AM 46.7760 -66.0290 45° Northeast 491 565 31,000  Level FlightAware ADS-B
Tue 12:51:52 AM 46.8320 -65.9510 44° Northeast 491 565 31,000  Level FlightAware ADS-B
Tue 12:52:32 AM 46.8880 -65.8720 44° Northeast 491 565 31,000  Level FlightAware ADS-B
Tue 12:53:12 AM 46.9430 -65.7940 44° Northeast 491 565 31,000  Level FlightAware ADS-B
Tue 12:54:02 AM 47.0130 -65.6960 44° Northeast 491 565 31,000  Level FlightAware ADS-B
Tue 12:54:18 AM 47.1833 -65.4500 44° Northeast 480 552 31,000  Level Moncton Center
Tue 12:55:18 AM 47.2833 -65.3167 42° Northeast 480 552 31,000  Level Moncton Center
Tue 12:56:18 AM 47.3667 -65.1667 51° Northeast 490 564 31,000  Level Moncton Center
Tue 12:57:18 AM 47.4667 -65.0333 42° Northeast 490 564 31,000  Level Moncton Center
Tue 12:58:18 AM 47.5667 -64.8667 48° Northeast 480 552 31,000  Level Moncton Center
Tue 12:59:18 AM 47.6500 -64.7500 43° Northeast 480 552 31,000  Level Moncton Center
Tue 01:00:18 AM 47.7500 -64.6000 45° Northeast 490 564 31,000  Level Moncton Center
Tue 01:01:18 AM 47.8333 -64.4500 50° Northeast 490 564 31,000  Level Moncton Center
Tue 01:02:18 AM 47.9333 -64.3000 45° Northeast 490 564 31,000  Level Moncton Center
Tue 01:03:18 AM 48.0333 -64.1500 45° Northeast 480 552 31,000  Level Moncton Center
Tue 01:03:48 AM 48.0833 -64.0833 42° Northeast 480 552 31,000  Level Gander Center
Tue 01:04:48 AM 48.1667 -63.9333 50° Northeast 470 541 31,000  Level Gander Center
Tue 01:05:18 AM 48.2167 -63.8667 42° Northeast 480 552 31,000  Level Moncton Center
Tue 01:06:18 AM 48.3000 -63.7167 50° Northeast 480 552 31,000  Level Moncton Center
Tue 01:07:18 AM 48.4000 -63.5667 45° Northeast 480 552 31,000  Level Moncton Center
Tue 01:08:18 AM 48.4833 -63.4333 47° Northeast 480 552 31,000  Level Moncton Center
Tue 01:09:18 AM 48.5833 -63.2833 45° Northeast 480 552 31,000  Level Moncton Center
Tue 01:10:18 AM 48.6667 -63.1333 50° Northeast 480 552 31,000  Level Moncton Center
Tue 01:10:48 AM 48.7000 -63.0333 63° Northeast 480 552 31,000  Level Gander Center
Tue 01:11:48 AM 48.7833 -62.8833 50° Northeast 480 552 31,000  Level Gander Center
Tue 01:12:18 AM 48.8500 -62.8167 33° Northeast 500 575 31,000  Level Moncton Center
Tue 01:13:18 AM 48.9333 -62.6333 55° Northeast 490 564 31,000  Level Moncton Center
Tue 01:13:48 AM 48.9833 -62.5833 33° Northeast 490 564 31,000  Level Gander Center
Tue 01:14:48 AM 49.0667 -62.4333 50° Northeast 490 564 31,000  Level Gander Center
Tue 01:15:18 AM 49.1000 -62.3333 63° Northeast 490 564 31,000  Level Moncton Center
Tue 01:15:48 AM 49.1500 -62.2500 47° Northeast 490 564 31,000  Level Gander Center
Tue 01:16:48 AM 49.2333 -62.1000 50° Northeast 490 564 31,000  Level Gander Center
Tue 01:17:18 AM 49.2833 -62.0167 47° Northeast 490 564 31,000  Level Moncton Center
Tue 01:18:18 AM 49.3667 -61.8500 52° Northeast 480 552 31,000  Level Moncton Center
Tue 01:19:18 AM 49.4667 -61.7000 44° Northeast 490 564 31,000  Level Moncton Center
Tue 01:19:48 AM 49.5000 -61.6167 58° Northeast 490 564 31,000  Level Gander Center
Tue 01:20:48 AM 49.5833 -61.4667 49° Northeast 490 564 31,000  Level Gander Center
Tue 01:21:48 AM 49.6667 -61.3000 52° Northeast 480 552 31,000  Level Gander Center
Tue 01:22:48 AM 49.7667 -61.1333 47° Northeast 490 564 31,000  Level Gander Center
Tue 01:23:18 AM 49.8167 -61.0500 47° Northeast 490 564 31,000  Level Moncton Center
Tue 01:24:18 AM 49.8833 -60.8833 58° Northeast 480 552 31,000  Level Moncton Center
Tue 01:24:48 AM 49.9333 -60.8167 41° Northeast 490 564 31,000  Level Gander Center
Tue 01:25:48 AM 50.0167 -60.6500 52° Northeast 490 564 31,000  Level Gander Center
Tue 01:26:18 AM 50.0667 -60.5667 47° Northeast 480 552 31,000  Level Moncton Center
Tue 01:27:18 AM 50.1500 -60.4000 52° Northeast 490 564 31,000  Level Moncton Center
Tue 01:27:48 AM 50.1833 -60.3167 58° Northeast 490 564 31,000  Level Gander Center
Tue 01:28:48 AM 50.2833 -60.1500 47° Northeast 490 564 31,000  Level Gander Center
Tue 01:29:18 AM 50.3167 -60.0667 58° Northeast 490 564 31,000  Level Moncton Center
Tue 01:30:18 AM 50.4000 -59.9000 52° Northeast 490 564 31,000  Level Moncton Center
Tue 01:30:48 AM 50.4500 -59.8167 47° Northeast 490 564 31,000  Level Gander Center
Tue 01:31:48 AM 50.5333 -59.6500 52° Northeast 490 564 31,000  Level Gander Center
Tue 01:32:48 AM 50.6000 -59.4833 58° Northeast 490 564 31,000  Level Gander Center
Tue 01:33:48 AM 50.7000 -59.3333 44° Northeast 490 564 31,000  Level Gander Center
Tue 01:34:18 AM 50.7333 -59.2333 62° Northeast 490 564 31,000  Level Moncton Center
Tue 01:35:18 AM 50.8333 -59.0500 49° Northeast 490 564 31,000  Level Moncton Center
Tue 01:36:18 AM 50.9000 -58.8667 60° Northeast 490 564 31,000  Level Moncton Center
Tue 01:36:48 AM 50.9500 -58.8167 32° Northeast 490 564 31,000  Level Gander Center
Tue 01:37:48 AM 51.0333 -58.6167 56° Northeast 490 564 31,000  Level Gander Center
Tue 01:38:48 AM 51.1167 -58.4500 51° Northeast 490 564 31,000 850 Level Gander Center
Tue 01:39:48 AM 51.2000 -58.3000 48° Northeast 480 552 32,700 1,000 Climbing Gander Center
Tue 01:40:48 AM 51.2833 -58.1333 51° Northeast 470 541 33,000 200 Climbing Gander Center
Tue 01:41:18 AM 51.3167 -58.0500 57° Northeast 470 541 33,000  Level Moncton Center
Tue 01:42:18 AM 51.4000 -57.8667 54° Northeast 470 541 33,000  Level Moncton Center
Tue 01:42:48 AM 51.4333 -57.8000 51° Northeast 470 541 33,000  Level Gander Center
Tue 01:43:48 AM 51.5167 -57.6333 51° Northeast 470 541 33,000  Level Gander Center
Tue 01:44:48 AM 51.6000 -57.4667 51° Northeast 470 541 33,000  Level Gander Center
Tue 01:45:18 AM 51.6333 -57.3500 65° Northeast 470 541 33,000  Level Moncton Center
Tue 01:46:18 AM 51.7000 -57.2000 54° Northeast 470 541 33,000  Level Moncton Center
Tue 01:46:48 AM 51.7500 -57.1167 46° Northeast 470 541 33,000  Level Gander Center
Tue 01:47:48 AM 51.8333 -56.9500 51° Northeast 470 541 33,000  Level Gander Center
Tue 01:48:48 AM 51.9000 -56.7500 62° Northeast 470 541 33,000  Level Gander Center
Tue 01:49:18 AM 51.9333 -56.6833 51° Northeast 470 541 33,000  Level Moncton Center
Tue 01:49:48 AM 51.9833 -56.6167 39° Northeast 470 541 33,000  Level Gander Center
Tue 01:50:48 AM 52.0667 -56.4167 56° Northeast 470 541 33,000  Level Gander Center
Tue 01:51:48 AM 52.1333 -56.2667 54° Northeast 470 541 33,000  Level Gander Center
Tue 01:52:18 AM 52.1667 -56.1833 57° Northeast 470 541 33,000  Level Moncton Center
Tue 01:53:18 AM 52.2500 -56.0000 53° Northeast 470 541 33,000  Level Moncton Center
Tue 01:54:18 AM 52.3167 -55.8167 59° Northeast 470 541 33,000  Level Moncton Center
Tue 01:56:16 AM 52.4833 -55.4500 53° Northeast 470 541 33,000  Level Gander Center
Tue 01:56:48 AM 52.5167 -55.3667 57° Northeast 470 541 33,000  Level Gander Center
Tue 01:57:18 AM 52.5667 -55.2833 45° Northeast 470 541 33,000  Level Moncton Center
Tue 01:58:18 AM 52.6333 -55.1167 57° Northeast 470 541 33,000  Level Moncton Center
Tue 01:59:48 AM 52.7333 -54.8500 58° Northeast 470 541 33,000  Level Gander Center
Tue 02:00:48 AM 52.8167 -54.6667 53° Northeast 470 541 33,000  Level Gander Center
Tue 02:01:16 AM 52.8500 -54.6000 50° Northeast 470 541 33,000  Level Gander Center
Tue 02:01:48 AM 52.8833 -54.4833 65° Northeast 470 541 33,000  Level Gander Center
Tue 02:02:48 AM 52.9667 -54.3000 53° Northeast 480 552 33,000  Level Gander Center
Tue 02:03:48 AM 53.0333 -54.1333 56° Northeast 480 552 33,000  Level Gander Center
Tue 02:04:16 AM 53.0667 -54.0333 68° East 480 552 33,000  Level Gander Center
Tue 02:05:00 AM 53.1199 -53.9186 68° East  Level FlightAware Approximate
Tue 02:06:48 AM 53.2000 -53.5167 67° East 480 552 33,000  Level Gander Center
Tue 02:07:00 AM 53.0667 -54.0667 67° East 491 565 33,000  Level ETMS Enhanced Traffic Management System
Tue 02:07:07 AM 53.0667 -54.0667 67° East 491 565 33,000  Level ETMS Enhanced Traffic Management System
Tue 02:07:48 AM 53.2500 -53.3000 67° East 480 552 33,000  Level Gander Center
Tue 02:08:48 AM 53.3000 -53.1000 67° East 490 564 33,000  Level Gander Center
Tue 02:09:48 AM 53.3500 -52.9000 67° East 480 552 33,000  Level Gander Center
Tue 02:10:48 AM 53.3833 -52.6667 76° East 480 552 33,000  Level Gander Center
Tue 02:11:48 AM 53.4500 -52.4500 63° Northeast 480 552 33,000  Level Gander Center
Tue 02:12:48 AM 53.5000 -52.2500 67° East 480 552 33,000  Level Gander Center
Tue 02:13:48 AM 53.5500 -52.0333 69° East 490 564 33,000  Level Gander Center
Tue 02:14:48 AM 53.5833 -51.8333 74° East 490 564 33,000  Level Gander Center
Tue 02:15:48 AM 53.6500 -51.6167 62° Northeast 490 564 33,000  Level Gander Center
Tue 02:16:48 AM 53.6833 -51.4167 74° East 490 564 33,000  Level Gander Center
Tue 02:17:48 AM 53.7167 -51.1833 76° East 490 564 33,000  Level Gander Center
Tue 02:19:48 AM 53.8333 -50.7500 65° Northeast 490 564 33,000  Level Gander Center
Tue 02:20:48 AM 53.8667 -50.5333 75° East 490 564 33,000  Level Gander Center
Tue 02:21:16 AM 53.8833 -50.4500 71° East 490 564 33,000  Level Gander Center
Tue 02:21:48 AM 53.9167 -50.3167 67° East 490 564 33,000  Level Gander Center
Tue 02:23:00 AM 53.9848 -50.0582 66° East  Level FlightAware Approximate
Tue 02:24:00 AM 54.0000 -50.0000 67° East 520 598 33,000  Level ETMS Enhanced Traffic Management System
Tue 02:30:00 AM 54.3892 -48.4044 68° East 520 598 33,000  Level FlightAware Transoceanic
Tue 02:31:00 AM 54.4430 -48.1740 68° East 520 598 33,000  Level FlightAware Transoceanic
Tue 02:32:00 AM 54.4964 -47.9431 68° East 520 598 33,000  Level FlightAware Transoceanic
Tue 02:33:00 AM 54.5494 -47.7115 69° East 520 598 33,000  Level FlightAware Transoceanic
Tue 02:34:00 AM 54.6020 -47.4793 69° East 520 598 33,000  Level FlightAware Transoceanic
Tue 02:35:00 AM 54.6540 -47.2465 69° East 520 598 33,000  Level FlightAware Transoceanic
Tue 02:36:00 AM 54.7057 -47.0131 69° East 520 598 33,000  Level FlightAware Transoceanic
Tue 02:37:00 AM 54.7569 -46.7791 69° East 520 598 33,000  Level FlightAware Transoceanic
Tue 02:38:00 AM 54.8076 -46.5446 70° East 520 598 33,000  Level FlightAware Transoceanic
Tue 02:39:00 AM 54.8579 -46.3094 70° East 520 598 33,000  Level FlightAware Transoceanic
Tue 02:40:00 AM 54.9078 -46.0737 70° East 520 598 33,000  Level FlightAware Transoceanic
Tue 02:41:00 AM 54.9571 -45.8374 70° East 520 598 33,000  Level FlightAware Transoceanic
Tue 02:42:00 AM 55.0061 -45.6005 70° East 520 598 33,000  Level FlightAware Transoceanic
Tue 02:43:00 AM 55.0545 -45.3630 71° East 520 598 33,000  Level FlightAware Transoceanic
Tue 02:44:00 AM 55.1025 -45.1250 71° East 520 598 33,000  Level FlightAware Transoceanic
Tue 02:45:00 AM 55.1500 -44.8863 71° East 520 598 33,000  Level FlightAware Transoceanic
Tue 02:46:00 AM 55.1971 -44.6472 71° East 520 598 33,000  Level FlightAware Transoceanic
Tue 02:47:00 AM 55.2437 -44.4074 71° East 520 598 33,000  Level FlightAware Transoceanic
Tue 02:48:00 AM 55.2898 -44.1671 71° East 520 598 33,000  Level FlightAware Transoceanic
Tue 02:49:00 AM 55.3354 -43.9263 72° East 520 598 33,000  Level FlightAware Transoceanic
Tue 02:50:00 AM 55.3806 -43.6848 72° East 520 598 33,000  Level FlightAware Transoceanic
Tue 02:51:00 AM 55.4253 -43.4429 72° East 520 598 33,000  Level FlightAware Transoceanic
Tue 02:52:00 AM 55.4695 -43.2004 72° East 520 598 33,000  Level FlightAware Transoceanic
Tue 02:53:00 AM 55.5133 -42.9573 72° East 520 598 33,000  Level FlightAware Transoceanic
Tue 02:54:00 AM 55.5565 -42.7137 73° East 520 598 33,000  Level FlightAware Transoceanic
Tue 02:55:00 AM 55.5993 -42.4696 73° East 520 598 33,000  Level FlightAware Transoceanic
Tue 02:56:00 AM 55.6416 -42.2250 73° East 520 598 33,000  Level FlightAware Transoceanic
Tue 02:57:00 AM 55.6834 -41.9798 73° East 520 598 33,000  Level FlightAware Transoceanic
Tue 02:58:00 AM 55.7247 -41.7341 73° East 520 598 33,000  Level FlightAware Transoceanic
Tue 02:59:00 AM 55.7655 -41.4879 74° East 520 598 33,000  Level FlightAware Transoceanic
Tue 03:00:00 AM 55.8058 -41.2412 74° East 520 598 33,000  Level FlightAware Transoceanic
Tue 03:01:00 AM 55.8457 -40.9939 74° East 520 598 33,000  Level FlightAware Transoceanic
Tue 03:02:00 AM 55.8850 -40.7462 74° East 520 598 33,000  Level FlightAware Transoceanic
Tue 03:03:00 AM 55.9238 -40.4980 75° East 520 598 33,000  Level FlightAware Transoceanic
Tue 03:04:00 AM 55.9622 -40.2492 75° East 520 598 33,000  Level FlightAware Transoceanic
Tue 03:05:00 AM 55.9985 -40.0097 75° East  Level FlightAware Approximate
Tue 03:06:00 AM 56.0344 -39.7697 75° East  Level FlightAware Approximate
Tue 03:07:00 AM 56.0090 -39.7723 86° East  Level FlightAware Approximate
Tue 03:07:00 AM 56.0000 -40.0000 86° East 558 642 33,000  Level ETMS Enhanced Traffic Management System
Tue 03:08:00 AM 56.0184 -39.5244 86° East  Level FlightAware Approximate
Tue 03:09:00 AM 56.0272 -39.2765 86° East  Level FlightAware Approximate
Tue 03:10:00 AM 56.0355 -39.0284 86° East  Level FlightAware Approximate
Tue 03:11:00 AM 56.0434 -38.7802 87° East  Level FlightAware Approximate
Tue 03:12:00 AM 56.0508 -38.5319 87° East  Level FlightAware Approximate
Tue 03:13:00 AM 56.0576 -38.2836 87° East  Level FlightAware Approximate
Tue 03:14:00 AM 56.0759 -37.5033 88° East 558 642 33,000  Level FlightAware Transoceanic
Tue 03:15:00 AM 56.0812 -37.2253 88° East 558 642 33,000  Level FlightAware Transoceanic
Tue 03:16:00 AM 56.0859 -36.9473 88° East 558 642 33,000  Level FlightAware Transoceanic
Tue 03:17:00 AM 56.0899 -36.6693 89° East 558 642 33,000  Level FlightAware Transoceanic
Tue 03:18:00 AM 56.0934 -36.3911 89° East 558 642 33,000  Level FlightAware Transoceanic
Tue 03:19:00 AM 56.0962 -36.1130 89° East 558 642 33,000  Level FlightAware Transoceanic
Tue 03:20:00 AM 56.0984 -35.8348 89° East 558 642 33,000  Level FlightAware Transoceanic
Tue 03:21:00 AM 56.0999 -35.5565 90° East 558 642 33,000  Level FlightAware Transoceanic
Tue 03:22:00 AM 56.1009 -35.2783 90° East 558 642 33,000  Level FlightAware Transoceanic
Tue 03:23:00 AM 56.1012 -35.0000 90° East 558 642 33,000  Level FlightAware Transoceanic
Tue 03:24:00 AM 56.1009 -34.7217 90° East 558 642 33,000  Level FlightAware Transoceanic
Tue 03:25:00 AM 56.0999 -34.4435 90° East 558 642 33,000  Level FlightAware Transoceanic
Tue 03:26:00 AM 56.0984 -34.1652 91° East 558 642 33,000  Level FlightAware Transoceanic
Tue 03:27:00 AM 56.0962 -33.8870 91° East 558 642 33,000  Level FlightAware Transoceanic
Tue 03:28:00 AM 56.0934 -33.6089 91° East 558 642 33,000  Level FlightAware Transoceanic
Tue 03:29:00 AM 56.0899 -33.3307 91° East 558 642 33,000  Level FlightAware Transoceanic
Tue 03:30:00 AM 56.0859 -33.0527 92° East 558 642 33,000  Level FlightAware Transoceanic
Tue 03:31:00 AM 56.0812 -32.7747 92° East 558 642 33,000  Level FlightAware Transoceanic
Tue 03:32:00 AM 56.0759 -32.4967 92° East 558 642 33,000  Level FlightAware Transoceanic
Tue 03:33:00 AM 56.0699 -32.2189 92° East 558 642 33,000  Level FlightAware Transoceanic
Tue 03:34:00 AM 56.0634 -31.9411 93° East 558 642 33,000  Level FlightAware Transoceanic
Tue 03:35:00 AM 56.0562 -31.6634 93° East 558 642 33,000  Level FlightAware Transoceanic
Tue 03:36:00 AM 56.0484 -31.3859 93° East 558 642 33,000  Level FlightAware Transoceanic
Tue 03:37:00 AM 56.0399 -31.1084 93° East 558 642 33,000  Level FlightAware Transoceanic
Tue 03:38:00 AM 56.0309 -30.8311 93° East 558 642 33,000  Level FlightAware Transoceanic
Tue 03:39:00 AM 56.0212 -30.5539 94° East 558 642 33,000  Level FlightAware Transoceanic
Tue 03:40:00 AM 56.0109 -30.2769 94° East 558 642 33,000  Level FlightAware Transoceanic
Tue 03:41:00 AM 56.0012 -30.0291 94° East  Level FlightAware Approximate
Tue 03:42:00 AM 55.9909 -29.7815 94° East  Level FlightAware Approximate
Tue 03:43:00 AM 55.9890 -29.8112 96° East  Level FlightAware Approximate
Tue 03:43:00 AM 56.0000 -30.0000 96° East 574 661 33,000  Level ETMS Enhanced Traffic Management System
Tue 03:44:00 AM 55.9741 -29.5644 96° East  Level FlightAware Approximate
Tue 03:45:00 AM 55.9588 -29.3178 96° East  Level FlightAware Approximate
Tue 03:46:00 AM 55.9429 -29.0714 96° East  Level FlightAware Approximate
Tue 03:47:00 AM 55.9266 -28.8252 97° East  Level FlightAware Approximate
Tue 03:48:00 AM 55.9098 -28.5793 97° East  Level FlightAware Approximate
Tue 03:49:00 AM 55.8488 -27.7368 98° East 574 661 33,000  Level FlightAware Transoceanic
Tue 03:50:00 AM 55.8270 -27.4552 98° East 574 661 33,000  Level FlightAware Transoceanic
Tue 03:51:00 AM 55.8045 -27.1740 98° East 574 661 33,000  Level FlightAware Transoceanic
Tue 03:52:00 AM 55.7814 -26.8930 98° East 574 661 33,000  Level FlightAware Transoceanic
Tue 03:53:00 AM 55.7577 -26.6124 99° East 574 661 33,000  Level FlightAware Transoceanic
Tue 03:54:00 AM 55.7333 -26.3321 99° East 574 661 33,000  Level FlightAware Transoceanic
Tue 03:55:00 AM 55.7083 -26.0522 99° East 574 661 33,000  Level FlightAware Transoceanic
Tue 03:56:00 AM 55.6826 -25.7727 99° East 574 661 33,000  Level FlightAware Transoceanic
Tue 03:57:00 AM 55.6563 -25.4935 100° East 574 661 33,000  Level FlightAware Transoceanic
Tue 03:58:00 AM 55.6294 -25.2148 100° East 574 661 33,000  Level FlightAware Transoceanic
Tue 03:59:00 AM 55.6019 -24.9363 100° East 574 661 33,000  Level FlightAware Transoceanic
Tue 04:00:00 AM 55.5737 -24.6583 100° East 574 661 33,000  Level FlightAware Transoceanic
Tue 04:01:00 AM 55.5449 -24.3807 101° East 574 661 33,000  Level FlightAware Transoceanic
Tue 04:02:00 AM 55.5155 -24.1035 101° East 574 661 33,000  Level FlightAware Transoceanic
Tue 04:03:00 AM 55.4854 -23.8268 101° East 574 661 33,000  Level FlightAware Transoceanic
Tue 04:04:00 AM 55.4547 -23.5504 101° East 574 661 33,000  Level FlightAware Transoceanic
Tue 04:05:00 AM 55.4234 -23.2745 101° East 574 661 33,000  Level FlightAware Transoceanic
Tue 04:06:00 AM 55.3915 -22.9990 102° East 574 661 33,000  Level FlightAware Transoceanic
Tue 04:07:00 AM 55.3590 -22.7240 102° East 574 661 33,000  Level FlightAware Transoceanic
Tue 04:08:00 AM 55.3258 -22.4494 102° East 574 661 33,000  Level FlightAware Transoceanic
Tue 04:09:00 AM 55.2920 -22.1753 102° East 574 661 33,000  Level FlightAware Transoceanic
Tue 04:10:00 AM 55.2577 -21.9017 103° East 574 661 33,000  Level FlightAware Transoceanic
Tue 04:11:00 AM 55.2227 -21.6285 103° East 574 661 33,000  Level FlightAware Transoceanic
Tue 04:12:00 AM 55.1871 -21.3559 103° East 574 661 33,000  Level FlightAware Transoceanic
Tue 04:13:00 AM 55.1509 -21.0837 103° East 574 661 33,000  Level FlightAware Transoceanic
Tue 04:14:00 AM 55.1141 -20.8120 103° East 574 661 33,000  Level FlightAware Transoceanic
Tue 04:15:00 AM 55.0766 -20.5408 104° East 574 661 33,000  Level FlightAware Transoceanic
Tue 04:16:00 AM 55.0386 -20.2701 104° East 574 661 33,000  Level FlightAware Transoceanic
Tue 04:17:00 AM 55.0051 -20.0351 104° East  Level FlightAware Approximate
Tue 04:18:00 AM 54.9710 -19.8005 104° East  Level FlightAware Approximate
Tue 04:19:00 AM 54.9796 -19.8341 102° East  Level FlightAware Approximate
Tue 04:20:00 AM 54.9502 -19.5977 102° East  Level FlightAware Approximate
Tue 04:21:00 AM 54.9202 -19.3617 102° East  Level FlightAware Approximate
Tue 04:22:00 AM 54.8899 -19.1260 103° East  Level FlightAware Approximate
Tue 04:23:00 AM 54.8591 -18.8907 103° East  Level FlightAware Approximate
Tue 04:24:00 AM 54.8278 -18.6557 103° East  Level FlightAware Approximate
Tue 04:25:00 AM 54.7960 -18.4211 103° East  Level FlightAware Approximate
Tue 04:26:00 AM 54.7639 -18.1869 103° East  Level FlightAware Approximate
Tue 04:27:00 AM 54.7312 -17.9531 103° East  Level FlightAware Approximate
Tue 04:28:00 AM 54.6981 -17.7196 104° East  Level FlightAware Approximate
Tue 04:29:00 AM 54.6646 -17.4865 104° East  Level FlightAware Approximate
Tue 04:30:00 AM 54.6306 -17.2538 104° East  Level FlightAware Approximate
Tue 04:31:00 AM 54.5962 -17.0215 104° East  Level FlightAware Approximate
Tue 04:32:00 AM 54.5613 -16.7896 104° East  Level FlightAware Approximate
Tue 04:33:00 AM 54.5260 -16.5581 105° East  Level FlightAware Approximate
Tue 04:34:00 AM 54.4903 -16.3270 105° East  Level FlightAware Approximate
Tue 04:35:00 AM 54.4541 -16.0963 105° East  Level FlightAware Approximate
Tue 04:36:00 AM 54.4174 -15.8660 105° East  Level FlightAware Approximate
Tue 04:37:00 AM 54.3804 -15.6361 105° East  Level FlightAware Approximate
Tue 04:38:00 AM 54.3429 -15.4066 106° East  Level FlightAware Approximate
Tue 04:39:00 AM 54.3049 -15.1776 106° East  Level FlightAware Approximate
Tue 04:40:00 AM 54.2666 -14.9490 106° East  Level FlightAware Approximate
Tue 04:41:00 AM 54.2277 -14.7208 106° East  Level FlightAware Approximate
Tue 04:41:57 AM 53.7880 -13.8270 106° East 558 642 33,000  Level FlightAware ADS-B
Tue 04:42:00 AM 54.1885 -14.4930 106° East  Level FlightAware Approximate
Tue 04:42:37 AM 53.7620 -13.6710 106° East 558 642 33,000  Level FlightAware ADS-B
Tue 04:43:17 AM 53.7640 -13.6790 293° West 558 642 33,000  Level FlightAware ADS-B
Tue 04:44:07 AM 53.6980 -13.2840 106° East 555 639 33,000  Level FlightAware ADS-B
Tue 04:44:47 AM 53.6710 -13.1260 106° East 558 642 33,000  Level FlightAware ADS-B
Tue 04:45:17 AM 53.6480 -12.9910 106° East 556 640 33,000  Level FlightAware ADS-B
Tue 04:45:57 AM 53.6200 -12.8260 106° East 556 640 33,000  Level FlightAware ADS-B
Tue 04:46:42 AM 53.5900 -12.6350 105° East 555 639 33,000  Level FlightAware ADS-B
Tue 04:47:22 AM 53.5650 -12.4660 104° East 557 641 33,000  Level FlightAware ADS-B
Tue 04:48:57 AM 53.5080 -12.0790 103° East 554 638 33,000  Level FlightAware ADS-B
Tue 04:49:00 AM 53.5122 -12.0948 103° East  Level Estimated
Tue 04:49:37 AM 53.4790 -11.8950 105° East 553 636 33,000  Level FlightAware ADS-B
Tue 04:50:22 AM 53.4520 -11.7270 105° East 553 636 33,000  Level FlightAware ADS-B
Tue 04:52:00 AM 53.3970 -11.3577 104° East  Level Estimated
Tue 04:52:02 AM 53.3770 -11.2970 104° East 553 636 33,000  Level FlightAware ADS-B
Tue 04:52:57 AM 53.3390 -11.0900 107° East 553 636 33,000  Level FlightAware ADS-B
Tue 04:53:52 AM 53.2980 -10.8690 107° East 554 638 33,000  Level FlightAware ADS-B
Tue 04:54:27 AM 53.2700 -10.7220 108° East 551 634 33,000 533 Level FlightAware ADS-B
Tue 04:55:22 AM 53.2270 -10.5010 108° East 548 631 33,800 1,000 Climbing FlightAware ADS-B
Tue 04:56:27 AM 53.1760 -10.2420 108° East 547 629 35,000 514 Climbing FlightAware ADS-B
Tue 04:57:42 AM 53.1160 -9.9400 108° East 545 627 35,000  Level FlightAware ADS-B
Tue 05:00:00 AM 53.0309 -9.4276 105° East  Level Estimated
Tue 05:00:27 AM 52.9770 -9.2620 105° East 550 633 35,000  Level FlightAware ADS-B
Tue 05:01:24 AM 52.9072 -8.9809 105° East 494 568 33,500  Descending FlightAware UK
Tue 05:01:37 AM 52.9240 -9.0110 105° East 549 632 35,000  Climbing FlightAware ADS-B
Tue 05:01:54 AM 52.8814 -8.8610 105° East 496 571 33,500 -2,571 Descending FlightAware UK
Tue 05:02:12 AM 52.8662 -8.7893 109° East 496 571 33,500 2,368 Level FlightAware UK
Tue 05:02:32 AM 52.8770 -8.7860 109° East 552 635 35,000  Climbing FlightAware ADS-B
Tue 05:02:48 AM 52.8364 -8.6451 109° East 496 571 33,500 -2,647 Descending FlightAware UK
Tue 05:03:06 AM 52.8216 -8.5730 109° East 496 571 33,500  Level FlightAware UK
Tue 05:03:24 AM 52.8067 -8.5010 109° East 496 571 33,500  Level FlightAware UK
Tue 05:03:42 AM 52.7916 -8.4293 109° East 494 568 33,500  Level FlightAware UK
Tue 05:04:00 AM 52.7764 -8.3572 109° East 492 566 33,500  Level FlightAware UK
Tue 05:04:18 AM 52.7613 -8.2857 109° East 494 568 33,500  Level FlightAware UK
Tue 05:04:36 AM 52.7463 -8.2141 109° East 494 568 33,500 2,647 Level FlightAware UK
Tue 05:04:52 AM 52.7610 -8.2230 109° East 551 634 35,000  Climbing FlightAware ADS-B
Tue 05:05:12 AM 52.7161 -8.0710 109° East 496 571 33,500 -2,368 Descending FlightAware UK
Tue 05:05:30 AM 52.7007 -7.9997 110° East 496 571 33,500 4,500 Level FlightAware UK
Tue 05:05:32 AM 52.7230 -8.0480 110° East 550 633 35,000  Climbing FlightAware ADS-B
Tue 05:05:48 AM 52.6851 -7.9285 110° East 496 571 33,500 -2,647 Descending FlightAware UK
Tue 05:06:06 AM 52.6693 -7.8573 110° East 494 568 33,500 4,737 Level FlightAware UK
Tue 05:06:07 AM 52.6960 -7.9220 110° East 551 634 35,000  Climbing FlightAware ADS-B
Tue 05:06:24 AM 52.6536 -7.7864 110° East 494 568 33,500 -2,571 Descending FlightAware UK
Tue 05:06:42 AM 52.6378 -7.7154 110° East 494 568 33,500 2,727 Level FlightAware UK
Tue 05:06:57 AM 52.6510 -7.7220 110° East 552 635 35,000  Climbing FlightAware ADS-B
Tue 05:07:12 AM 52.6115 -7.5970 110° East 496 571 33,500 -2,727 Descending FlightAware UK
Tue 05:07:30 AM 52.5956 -7.5263 110° East 496 571 33,500 3,600 Level FlightAware UK
Tue 05:07:37 AM 52.6150 -7.5580 110° East 552 635 35,000  Climbing FlightAware ADS-B
Tue 05:07:54 AM 52.5741 -7.4320 110° East 498 573 33,500 -2,571 Descending FlightAware UK
Tue 05:08:12 AM 52.5579 -7.3615 111° Southeast 496 571 33,500 3,214 Level FlightAware UK
Tue 05:08:22 AM 52.5750 -7.3820 111° Southeast 551 634 35,000  Climbing FlightAware ADS-B
Tue 05:08:42 AM 52.5309 -7.2441 111° Southeast 498 573 33,500 -2,368 Descending FlightAware UK
Tue 05:09:00 AM 52.5146 -7.1738 111° Southeast 496 571 33,500 4,500 Level FlightAware UK
Tue 05:09:02 AM 52.5390 -7.2260 111° Southeast 551 634 35,000  Climbing FlightAware ADS-B
Tue 05:09:18 AM 52.4981 -7.1029 111° Southeast 496 571 33,500 -2,647 Descending FlightAware UK
Tue 05:09:36 AM 52.4818 -7.0326 111° Southeast 496 571 33,500 3,750 Level FlightAware UK
Tue 05:09:42 AM 52.5020 -7.0670 111° Southeast 550 633 35,000  Climbing FlightAware ADS-B
Tue 05:10:00 AM 52.4600 -6.9393 111° Southeast 496 571 33,500 -2,500 Descending FlightAware UK
Tue 05:10:18 AM 52.4435 -6.8694 111° Southeast 494 568 33,500 3,333 Level FlightAware UK
Tue 05:10:27 AM 52.4620 -6.8950 111° Southeast 551 634 35,000  Climbing FlightAware ADS-B
Tue 05:10:42 AM 52.4216 -6.7762 111° Southeast 494 568 33,500 -2,727 Descending FlightAware UK
Tue 05:11:00 AM 52.4051 -6.7063 111° Southeast 494 568 33,500 3,600 Level FlightAware UK
Tue 05:11:07 AM 52.4270 -6.7500 111° Southeast 552 635 35,000  Climbing FlightAware ADS-B
Tue 05:11:24 AM 52.3830 -6.6133 111° Southeast 494 568 33,500 -2,571 Descending FlightAware UK
Tue 05:11:42 AM 52.3665 -6.5433 111° Southeast 492 566 33,500 3,214 Level FlightAware UK
Tue 05:11:52 AM 52.3830 -6.5610 111° Southeast 552 635 35,000  Climbing FlightAware ADS-B
Tue 05:12:12 AM 52.3386 -6.4268 111° Southeast 492 566 33,500 -2,368 Descending FlightAware UK
Tue 05:12:30 AM 52.3218 -6.3568 111° Southeast 492 566 33,500 4,500 Level FlightAware UK
Tue 05:12:32 AM 52.3450 -6.4050 111° Southeast 554 638 35,000  Climbing FlightAware ADS-B
Tue 05:12:48 AM 52.3050 -6.2869 111° Southeast 492 566 33,500 -2,647 Descending FlightAware UK
Tue 05:13:06 AM 52.2880 -6.2169 112° Southeast 494 568 33,500 3,103 Level FlightAware UK
Tue 05:13:17 AM 52.3040 -6.2360 112° Southeast 554 638 35,000  Climbing FlightAware ADS-B
Tue 05:13:36 AM 52.2597 -6.1004 112° Southeast 494 568 33,500  Descending FlightAware UK
Tue 05:13:57 AM 52.2660 -6.0800 112° Southeast 554 638 35,000  Climbing FlightAware ADS-B
Tue 05:14:12 AM 52.2257 -5.9597 112° Southeast 496 571 33,500 -2,727 Descending FlightAware UK
Tue 05:14:30 AM 52.2087 -5.8899 112° Southeast 500 575 33,500 3,000 Level FlightAware UK
Tue 05:14:42 AM 52.2260 -5.9090 112° Southeast 555 639 35,000  Climbing FlightAware ADS-B
Tue 05:15:00 AM 52.1893 -5.7692 112° Southeast 496 571 33,500 -2,500 Descending FlightAware UK
Tue 05:15:18 AM 52.1801 -5.6954 101° East 496 571 33,500 4,091 Level FlightAware UK
Tue 05:15:22 AM 52.2040 -5.7440 101° East 556 640 35,000  Climbing FlightAware ADS-B
Tue 05:15:42 AM 52.1683 -5.5971 101° East 500 575 33,500  Descending FlightAware UK
Tue 05:15:57 AM 52.1870 -5.6130 101° East 556 640 35,000  Climbing FlightAware ADS-B
Tue 05:16:00 AM 52.1594 -5.5235 101° East 496 571 33,500 -6,000 Descending FlightAware UK
Tue 05:16:12 AM 52.1533 -5.4746 101° East 496 571 33,500  Level FlightAware UK
Tue 05:16:36 AM 52.1402 -5.3771 102° East 500 575 33,500 2,571 Level FlightAware UK
Tue 05:16:47 AM 52.1590 -5.4020 102° East 554 638 35,000  Climbing FlightAware ADS-B
Tue 05:17:06 AM 52.1229 -5.2557 102° East 498 573 33,500 -2,432 Descending FlightAware UK
Tue 05:17:24 AM 52.1121 -5.1831 104° East 500 575 33,500 4,286 Level FlightAware UK
Tue 05:17:27 AM 52.1340 -5.2300 104° East 553 636 35,000  Climbing FlightAware ADS-B
Tue 05:17:42 AM 52.1013 -5.1106 104° East 500 575 33,500 -2,727 Descending FlightAware UK
Tue 05:18:00 AM 52.0904 -5.0384 104° East 498 573 33,500 3,600 Level FlightAware UK
Tue 05:18:07 AM 52.1100 -5.0700 104° East 552 635 35,000  Climbing FlightAware ADS-B
Tue 05:18:30 AM 52.0697 -4.9186 104° East 502 578 33,500  Descending FlightAware UK
Tue 05:18:52 AM 52.0750 -4.9020 104° East 546 628 35,000  Climbing FlightAware ADS-B
Tue 05:19:12 AM 52.0277 -4.7615 104° East 504 580 33,500 -2,368 Descending FlightAware UK
Tue 05:19:30 AM 52.0096 -4.6946 114° Southeast 502 578 33,500 4,500 Level FlightAware UK
Tue 05:19:32 AM 52.0330 -4.7500 114° Southeast 543 625 35,000  Climbing FlightAware ADS-B
Tue 05:19:48 AM 51.9919 -4.6275 114° Southeast 496 571 33,500  Descending FlightAware UK
Tue 05:20:09 AM 51.9935 -4.5983 114° Southeast 542 624 35,000  Climbing FlightAware ADS-B
Tue 05:20:48 AM 51.9340 -4.4045 114° Southeast 496 571 33,500  Descending FlightAware UK
Tue 05:20:57 AM 51.9490 -4.4290 114° Southeast 540 621 35,000 2,813 Climbing FlightAware ADS-B
Tue 05:21:20 AM 51.9248 -4.3342 112° Southeast 542 624 35,000 -1,957 Level FlightAware ADS-B
Tue 05:21:43 AM 51.8769 -4.2085 112° Southeast 496 571 33,500  Descending FlightAware UK
Tue 05:21:58 AM 51.8768 -4.2061 112° Southeast 542 624 35,000 3,103 Climbing FlightAware ADS-B
Tue 05:22:12 AM 51.8557 -4.1576 125° Southeast 530 610 35,000 -1,304 Level FlightAware ADS-B
Tue 05:23:07 AM 51.7612 -3.9372 125° Southeast 494 568 33,500  Descending FlightAware UK
Tue 05:23:17 AM 51.7700 -3.9570 125° Southeast 528 608 35,000  Climbing FlightAware ADS-B
Tue 05:23:43 AM 51.7205 -3.8128 125° Southeast 492 566 33,500  Descending FlightAware UK
Tue 05:23:57 AM 51.7330 -3.8130 125° Southeast 539 620 35,000  Climbing FlightAware ADS-B
Tue 05:24:19 AM 51.7059 -3.6705 125° Southeast 492 566 33,500  Descending FlightAware UK
Tue 05:24:42 AM 51.7180 -3.6320 125° Southeast 541 623 35,000 2,143 Climbing FlightAware ADS-B
Tue 05:25:01 AM 51.7101 -3.5470 98° East 541 623 35,000 -2,432 Level FlightAware ADS-B
Tue 05:25:19 AM 51.6852 -3.4315 98° East 492 566 33,500  Descending FlightAware UK
Tue 05:25:32 AM 51.6971 -3.4236 98° East 540 621 35,000  Climbing FlightAware ADS-B
Tue 05:25:49 AM 51.6727 -3.3133 98° East 494 568 33,500  Descending FlightAware UK
Tue 05:26:02 AM 51.6844 -3.3023 98° East 540 621 35,000  Climbing FlightAware ADS-B
Tue 05:26:19 AM 51.6615 -3.1941 98° East 492 566 33,500  Descending FlightAware UK
Tue 05:26:34 AM 51.6736 -3.1752 98° East 541 623 35,000  Climbing FlightAware ADS-B
Tue 05:26:49 AM 51.6526 -3.0747 98° East 492 566 33,500  Descending FlightAware UK
Tue 05:27:08 AM 51.6633 -3.0410 98° East 541 623 35,000  Climbing FlightAware ADS-B
Tue 05:27:25 AM 51.6422 -2.9310 98° East 494 568 33,500  Descending FlightAware UK
Tue 05:27:38 AM 51.6540 -2.9211 98° East 540 621 35,000  Climbing FlightAware ADS-B
Tue 05:27:55 AM 51.6335 -2.8122 98° East 492 566 33,500  Descending FlightAware UK
Tue 05:28:11 AM 51.6438 -2.7907 98° East 540 621 35,000 1,875 Climbing FlightAware ADS-B
Tue 05:28:43 AM 51.6335 -2.6637 97° East 540 621 35,000 -1,800 Level FlightAware ADS-B
Tue 05:29:01 AM 51.6131 -2.5501 97° East 494 568 33,500  Descending FlightAware UK
Tue 05:29:13 AM 51.6236 -2.5432 97° East 540 621 35,000 2,143 Climbing FlightAware ADS-B
Tue 05:29:43 AM 51.6139 -2.4230 97° East 539 620 35,000  Level FlightAware ADS-B
Tue 05:30:14 AM 51.6038 -2.3010 98° East 539 620 35,000  Level FlightAware ADS-B
Tue 05:30:47 AM 51.5928 -2.1697 98° East 538 619 35,000  Level FlightAware ADS-B
Tue 05:31:20 AM 51.5818 -2.0398 98° East 537 618 35,000 -1,579 Level FlightAware ADS-B
Tue 05:31:44 AM 51.5618 -1.9104 98° East 492 566 33,500  Descending FlightAware UK
Tue 05:31:53 AM 51.5708 -1.9111 98° East 538 619 35,000 2,308 Climbing FlightAware ADS-B
Tue 05:32:23 AM 51.5603 -1.7905 98° East 537 618 35,000  Level FlightAware ADS-B
Tue 05:32:53 AM 51.5500 -1.6714 98° East 536 617 35,000 -1,765 Level FlightAware ADS-B
Tue 05:33:14 AM 51.5324 -1.5558 98° East 496 571 33,500  Descending FlightAware UK
Tue 05:33:24 AM 51.5399 -1.5517 98° East 535 616 35,000  Climbing FlightAware ADS-B
Tue 05:33:44 AM 51.5226 -1.4385 98° East 494 568 33,500  Descending FlightAware UK
Tue 05:33:54 AM 51.5294 -1.4331 98° East 534 615 35,000  Climbing FlightAware ADS-B
Tue 05:34:14 AM 51.5128 -1.3209 98° East 492 566 33,500  Descending FlightAware UK
Tue 05:34:25 AM 51.5188 -1.3113 98° East 533 613 35,000  Climbing FlightAware ADS-B
Tue 05:34:50 AM 51.5005 -1.1810 98° East 490 564 33,500  Descending FlightAware UK
Tue 05:34:57 AM 51.5075 -1.1872 98° East 533 613 35,000 2,308 Climbing FlightAware ADS-B
Tue 05:35:29 AM 51.4961 -1.0636 98° East 533 613 35,000 -1,875 Level FlightAware ADS-B
Tue 05:35:45 AM 51.4818 -0.9707 98° East 494 568 33,500  Descending FlightAware UK
Tue 05:36:00 AM 51.4848 -0.9432 98° East 532 612 35,000 1,957 Climbing FlightAware ADS-B
Tue 05:36:31 AM 51.4735 -0.8224 98° East 531 611 35,000  Level FlightAware ADS-B
Tue 05:37:01 AM 51.4620 -0.7034 99° East 530 610 35,000  Level FlightAware ADS-B
Tue 05:37:32 AM 51.4505 -0.5851 99° East 529 609 35,000  Level FlightAware ADS-B
Tue 05:38:02 AM 51.4392 -0.4692 99° East 528 608 35,000 -1,837 Level FlightAware ADS-B
Tue 05:38:21 AM 51.4255 -0.3672 99° East 496 571 33,500  Descending FlightAware UK
Tue 05:38:32 AM 51.4276 -0.3527 99° East 525 604 35,000 2,143 Climbing FlightAware ADS-B
Tue 05:39:03 AM 51.4160 -0.2361 99° East 523 602 35,000 -1,636 Level FlightAware ADS-B
Tue 05:39:27 AM 51.4006 -0.1170 99° East 488 562 33,500  Descending FlightAware UK
Tue 05:39:33 AM 51.4041 -0.1201 99° East 524 603 35,000  Climbing FlightAware ADS-B
Tue 05:39:51 AM 51.3914 -0.0250 99° East 490 564 33,500  Descending FlightAware UK
Tue 05:40:05 AM 51.3919 0.0000 99° East 524 603 35,000 2,045 Climbing FlightAware ADS-B
Tue 05:40:35 AM 51.3804 0.1151 99° East 525 604 35,000  Level FlightAware ADS-B
Tue 05:41:05 AM 51.3682 0.2326 99° East 526 605 35,000  Level FlightAware ADS-B
Tue 05:41:37 AM 51.3556 0.3542 99° East 526 605 35,000 -1,915 Level FlightAware ADS-B
Tue 05:41:52 AM 51.3455 0.4337 99° East 492 566 33,500  Descending FlightAware UK
Tue 05:42:10 AM 51.3425 0.4792 99° East 526 605 35,000 1,875 Climbing FlightAware ADS-B
Tue 05:42:40 AM 51.3299 0.5966 100° East 526 605 35,000 -1,875 Level FlightAware ADS-B
Tue 05:42:58 AM 51.3192 0.6863 100° East 496 571 33,500  Descending FlightAware UK
Tue 05:43:13 AM 51.3167 0.7206 100° East 526 605 35,000  Climbing FlightAware ADS-B
Tue 05:43:28 AM 51.3069 0.8005 100° East 496 571 33,500  Descending FlightAware UK
Tue 05:43:44 AM 51.3038 0.8398 100° East 525 604 35,000 1,915 Climbing FlightAware ADS-B
Tue 05:44:15 AM 51.2908 0.9583 100° East 524 603 35,000 -1,800 Level FlightAware ADS-B
Tue 05:44:34 AM 51.2799 1.0516 100° East 494 568 33,500  Descending FlightAware UK
Tue 05:44:52 AM 51.2760 1.0920 100° East 523 602 35,000  Climbing FlightAware ADS-B
Tue 05:45:16 AM 51.2626 1.2106 100° East 494 568 33,500  Descending FlightAware UK
Tue 05:45:32 AM 51.2600 1.2390 100° East 523 602 35,000  Climbing FlightAware ADS-B
Tue 05:45:58 AM 51.2449 1.3703 100° East 490 564 33,500  Descending FlightAware UK
Tue 05:46:17 AM 51.2410 1.4060 100° East 523 602 35,000  Climbing FlightAware ADS-B
Tue 05:46:34 AM 51.2298 1.5067 100° East 490 564 33,500  Descending FlightAware UK
Tue 05:46:52 AM 51.2250 1.5470 100° East 525 604 35,000  Climbing FlightAware ADS-B
Tue 05:47:10 AM 51.2143 1.6431 100° East 490 564 33,500  Descending FlightAware UK
Tue 05:47:32 AM 51.2090 1.6940 100° East 525 604 35,000  Climbing FlightAware ADS-B
Tue 05:47:52 AM 51.1959 1.8033 100° East 490 564 33,500  Descending FlightAware UK
Tue 05:48:02 AM 51.1960 1.8030 100° East 526 605 35,000  Climbing FlightAware ADS-B
Tue 05:48:22 AM 51.1825 1.9173 100° East 492 566 33,500  Descending FlightAware UK
Tue 05:48:42 AM 51.1790 1.9470 100° East 527 606 35,000  Climbing FlightAware ADS-B
Tue 05:49:05 AM 51.1636 2.0779 100° East 492 566 33,500  Descending FlightAware UK
Tue 05:49:27 AM 51.1580 2.1270 100° East 527 606 35,000  Climbing FlightAware ADS-B
Tue 05:49:59 AM 51.1399 2.2838 100° East 490 564 33,500  Descending FlightAware UK
Tue 05:50:07 AM 51.1400 2.2780 100° East 528 608 35,000  Climbing FlightAware ADS-B
Tue 05:50:23 AM 51.1288 2.3753 100° East 490 564 33,500  Descending FlightAware UK
Tue 05:50:47 AM 51.1220 2.4310 100° East 529 609 35,000  Climbing FlightAware ADS-B
Tue 05:51:17 AM 51.1033 2.5808 100° East 490 564 33,500  Descending FlightAware UK
Tue 05:51:32 AM 51.1000 2.6050 100° East 527 606 35,000  Climbing FlightAware ADS-B
Tue 05:51:47 AM 51.0871 2.6941 100° East 490 564 33,500  Descending FlightAware UK
Tue 05:52:12 AM 51.0760 2.7540 100° East 525 604 35,000  Climbing FlightAware ADS-B
Tue 05:52:29 AM 51.0595 2.8501 100° East 488 562 33,500  Descending FlightAware UK
Tue 05:52:52 AM 51.0510 2.8940 100° East 525 604 35,000 1,324 Climbing FlightAware ADS-B
Tue 05:53:37 AM 51.0190 3.0680 106° East 526 605 35,000 -1,059 Level FlightAware ADS-B
Tue 05:54:17 AM 50.9853 3.2503 106° East 494 568 33,500  Descending FlightAware UK
Tue 05:54:17 AM 50.9920 3.2190 106° East 526 605 35,000  Climbing FlightAware ADS-B
Tue 05:54:41 AM 50.9689 3.3392 106° East 494 568 33,500 -2,143 Descending FlightAware UK
Tue 05:54:59 AM 50.9562 3.4054 107° East 496 571 33,500 4,286 Level FlightAware UK
Tue 05:55:02 AM 50.9610 3.3790 107° East 522 601 35,000 2,093 Climbing FlightAware ADS-B
Tue 05:55:42 AM 50.9300 3.5280 108° East 521 600 35,000  Level FlightAware ADS-B
Tue 05:56:22 AM 50.9000 3.6730 108° East 520 598 35,000 -1,385 Level FlightAware ADS-B
Tue 05:56:47 AM 50.8732 3.7960 108° East 492 566 33,500  Descending FlightAware UK
Tue 05:57:07 AM 50.8660 3.8350 108° East 519 597 35,000  Climbing FlightAware ADS-B
Tue 05:57:29 AM 50.8414 3.9474 108° East 492 566 33,500  Descending FlightAware UK
Tue 05:57:47 AM 50.8360 3.9780 108° East 518 596 35,000  Climbing FlightAware ADS-B
Tue 05:58:11 AM 50.8093 4.0983 108° East 492 566 33,500  Descending FlightAware UK
Tue 05:58:32 AM 50.8020 4.1430 108° East 517 595 35,000 1,475 Climbing FlightAware ADS-B
Tue 05:59:12 AM 50.7710 4.2880 109° East 516 594 35,000 -1,304 Level FlightAware ADS-B
Tue 05:59:41 AM 50.7403 4.4216 109° East 492 566 33,500  Descending FlightAware UK
Tue 05:59:52 AM 50.7410 4.4300 109° East 515 593 35,000  Climbing FlightAware ADS-B
Tue 06:00:11 AM 50.7172 4.5290 109° East 492 566 33,500  Descending FlightAware UK
Tue 06:00:37 AM 50.7070 4.5890 109° East 515 593 35,000 1,364 Climbing FlightAware ADS-B
Tue 06:01:17 AM 50.6760 4.7340 109° East 514 592 35,000  Level FlightAware ADS-B
Tue 06:01:57 AM 50.6450 4.8790 109° East 513 590 35,000  Level FlightAware ADS-B
Tue 06:02:42 AM 50.6130 5.0280 109° East 512 589 35,000  Level FlightAware ADS-B
Tue 06:03:27 AM 50.5760 5.1910 110° East 512 589 35,000  Level FlightAware ADS-B
Tue 06:04:07 AM 50.5450 5.3340 109° East 512 589 35,000  Level FlightAware ADS-B
Tue 06:04:47 AM 50.5130 5.4730 110° East 512 589 35,000  Level FlightAware ADS-B
Tue 06:05:32 AM 50.4770 5.6370 109° East 512 589 35,000  Level FlightAware ADS-B
Tue 06:06:12 AM 50.4420 5.7750 112° Southeast 497 572 35,000  Level FlightAware ADS-B
Tue 06:06:52 AM 50.3910 5.8770 128° Southeast 483 556 35,000  Level FlightAware ADS-B
Tue 06:07:37 AM 50.3270 6.0070 128° Southeast 487 560 35,000  Level FlightAware ADS-B
Tue 06:08:17 AM 50.2740 6.1220 126° Southeast 486 559 35,000  Level FlightAware ADS-B
Tue 06:09:02 AM 50.2140 6.2520 126° Southeast 483 556 35,000  Level FlightAware ADS-B
Tue 06:09:37 AM 50.1670 6.3440 129° Southeast 480 552 35,000  Level FlightAware ADS-B
Tue 06:10:27 AM 50.0970 6.4800 129° Southeast 475 547 35,000  Level FlightAware ADS-B
Tue 06:11:07 AM 50.0380 6.5810 132° Southeast 474 545 35,000  Level FlightAware ADS-B
Tue 06:12:02 AM 49.9580 6.7190 132° Southeast 474 545 35,000  Level FlightAware ADS-B
Tue 06:12:37 AM 49.9080 6.8060 132° Southeast 474 545 35,000  Level FlightAware ADS-B
Tue 06:13:27 AM 49.8400 6.9250 132° Southeast 470 541 35,000  Level FlightAware ADS-B
Tue 06:14:07 AM 49.7830 7.0230 132° Southeast 470 541 35,000  Level FlightAware ADS-B
Tue 06:14:47 AM 49.7210 7.1290 132° Southeast 477 549 35,000  Level FlightAware ADS-B
Tue 06:15:32 AM 49.6540 7.2430 132° Southeast 479 551 35,000  Level FlightAware ADS-B
Tue 06:16:17 AM 49.5890 7.3520 133° Southeast 480 552 35,000  Level FlightAware ADS-B
Tue 06:16:57 AM 49.5310 7.4500 132° Southeast 481 554 35,000  Level FlightAware ADS-B
Tue 06:17:37 AM 49.4660 7.5580 133° Southeast 481 554 35,000  Level FlightAware ADS-B
Tue 06:18:17 AM 49.4070 7.6570 132° Southeast 479 551 35,000  Level FlightAware ADS-B
Tue 06:19:02 AM 49.3370 7.7720 133° Southeast 479 551 35,000  Level FlightAware ADS-B
Tue 06:19:47 AM 49.2750 7.8750 133° Southeast 477 549 35,000  Level FlightAware ADS-B
Tue 06:20:27 AM 49.2150 7.9730 133° Southeast 476 548 35,000  Level FlightAware ADS-B
Tue 06:21:07 AM 49.1560 8.0710 133° Southeast 475 547 35,000  Level FlightAware ADS-B
Tue 06:21:47 AM 49.0910 8.1750 134° Southeast 474 545 35,000  Level FlightAware ADS-B
Tue 06:22:32 AM 49.0250 8.2830 133° Southeast 473 544 35,000  Level FlightAware ADS-B
Tue 06:23:12 AM 48.9590 8.3870 134° Southeast 473 544 35,000  Level FlightAware ADS-B
Tue 06:23:52 AM 48.9060 8.4720 133° Southeast 469 540 35,000  Level FlightAware ADS-B
Tue 06:24:37 AM 48.8330 8.5880 134° Southeast 472 543 35,000  Level FlightAware ADS-B
Tue 06:25:22 AM 48.7660 8.6940 134° Southeast 469 540 35,000  Level FlightAware ADS-B
Tue 06:26:02 AM 48.7090 8.7860 133° Southeast 466 536 35,000  Level FlightAware ADS-B
Tue 06:26:47 AM 48.6440 8.8870 134° Southeast 464 534 35,000  Level FlightAware ADS-B
Tue 06:27:27 AM 48.5810 8.9860 134° Southeast 462 532 35,000  Level FlightAware ADS-B
Tue 06:28:07 AM 48.5190 9.0840 134° Southeast 462 532 35,000  Level FlightAware ADS-B
Tue 06:28:47 AM 48.4600 9.1750 134° Southeast 463 533 35,000  Level FlightAware ADS-B
Tue 06:29:32 AM 48.3920 9.2800 134° Southeast 464 534 35,000  Level FlightAware ADS-B
Tue 06:30:12 AM 48.3320 9.3740 134° Southeast 465 535 35,000  Level FlightAware ADS-B
Tue 06:30:57 AM 48.2600 9.4670 139° Southeast 458 527 35,000  Level FlightAware ADS-B
Tue 06:31:37 AM 48.1890 9.5440 144° Southeast 456 525 35,000  Level FlightAware ADS-B
Tue 06:32:22 AM 48.1120 9.6250 145° Southeast 455 524 35,000  Level FlightAware ADS-B
Tue 06:33:02 AM 48.0430 9.6980 145° Southeast 455 524 35,000  Level FlightAware ADS-B
Tue 06:33:47 AM 47.9650 9.7800 145° Southeast 455 524 35,000  Level FlightAware ADS-B
Tue 06:34:27 AM 47.8960 9.8520 145° Southeast 455 524 35,000  Level FlightAware ADS-B
Tue 06:35:07 AM 47.8280 9.9230 145° Southeast 455 524 35,000  Level FlightAware ADS-B
Tue 06:35:52 AM 47.7510 10.0040 145° Southeast 450 518 35,000  Level FlightAware ADS-B
Tue 06:36:32 AM 47.6800 10.0770 145° Southeast 450 518 35,000  Level FlightAware ADS-B
Tue 06:37:12 AM 47.6120 10.1460 146° Southeast 455 524 35,000  Level FlightAware ADS-B
Tue 06:37:57 AM 47.5400 10.2210 145° Southeast 453 521 35,000  Level FlightAware ADS-B
Tue 06:38:37 AM 47.4650 10.2970 146° Southeast 453 521 35,000  Level FlightAware ADS-B
Tue 06:40:17 AM 47.3050 10.4600 145° Southeast 456 525 35,000  Level FlightAware ADS-B
Tue 06:40:57 AM 47.2210 10.5450 145° Southeast 456 525 35,000  Level FlightAware ADS-B
Tue 06:41:37 AM 47.1530 10.6150 145° Southeast 465 535 35,000  Level FlightAware ADS-B
Tue 06:42:22 AM 47.0710 10.7020 144° Southeast 467 537 35,000  Level FlightAware ADS-B
Tue 06:43:02 AM 47.0050 10.7970 136° Southeast 480 552 35,000  Level FlightAware ADS-B
Tue 06:43:47 AM 46.9370 10.9030 133° Southeast 477 549 35,000  Level FlightAware ADS-B
Tue 06:44:27 AM 46.8760 10.9990 133° Southeast 479 551 35,000  Level FlightAware ADS-B
Tue 06:45:12 AM 46.8080 11.1030 134° Southeast 480 552 35,000  Level FlightAware ADS-B
Tue 06:45:52 AM 46.7450 11.2010 133° Southeast 488 562 35,000  Level FlightAware ADS-B
Tue 06:46:32 AM 46.6820 11.2990 133° Southeast 490 564 35,000  Level FlightAware ADS-B
Tue 06:47:17 AM 46.6160 11.4000 134° Southeast 488 562 35,000  Level FlightAware ADS-B
Tue 06:47:57 AM 46.5550 11.4940 133° Southeast 486 559 35,000  Level FlightAware ADS-B
Tue 06:48:42 AM 46.4860 11.5980 134° Southeast 483 556 35,000  Level FlightAware ADS-B
Tue 06:49:22 AM 46.4230 11.6930 134° Southeast 474 545 35,000  Level FlightAware ADS-B
Tue 06:50:03 AM 46.3610 11.7840 135° Southeast 472 543 35,000  Level FlightAware ADS-B
Tue 06:50:47 AM 46.2920 11.8870 134° Southeast 472 543 35,000  Level FlightAware ADS-B
Tue 06:51:27 AM 46.2320 11.9770 134° Southeast 471 542 35,000  Level FlightAware ADS-B
Tue 06:52:12 AM 46.1620 12.0810 134° Southeast 469 540 35,000  Level FlightAware ADS-B
Tue 06:52:52 AM 46.1030 12.1770 132° Southeast 475 547 35,000  Level FlightAware ADS-B
Tue 06:53:32 AM 46.0480 12.2760 129° Southeast 475 547 35,000  Level FlightAware ADS-B
Tue 06:54:17 AM 45.9870 12.3900 128° Southeast 475 547 35,000  Level FlightAware ADS-B
Tue 06:54:57 AM 45.9350 12.4890 127° Southeast 470 541 35,000  Level FlightAware ADS-B
Tue 06:55:42 AM 45.8740 12.6050 127° Southeast 469 540 35,000  Level FlightAware ADS-B
Tue 06:56:22 AM 45.8220 12.7050 127° Southeast 468 539 35,000  Level FlightAware ADS-B
Tue 06:57:02 AM 45.7680 12.8060 127° Southeast 467 537 35,000  Level FlightAware ADS-B
Tue 06:57:47 AM 45.7120 12.9140 127° Southeast 468 539 35,000  Level FlightAware ADS-B
Tue 06:58:27 AM 45.6570 13.0160 128° Southeast 468 539 35,000  Level FlightAware ADS-B
Tue 06:59:12 AM 45.5980 13.1270 127° Southeast 466 536 35,000  Level FlightAware ADS-B
Tue 06:59:52 AM 45.5450 13.2260 127° Southeast 470 541 35,000  Level FlightAware ADS-B
Tue 07:00:32 AM 45.4920 13.3230 128° Southeast 469 540 35,000  Level FlightAware ADS-B
Tue 07:01:17 AM 45.4310 13.4330 128° Southeast 468 539 35,000  Level FlightAware ADS-B
Tue 07:01:57 AM 45.3790 13.5280 128° Southeast 462 532 35,000  Level FlightAware ADS-B
Tue 07:02:42 AM 45.3190 13.6390 128° Southeast 462 532 35,000  Level FlightAware ADS-B
Tue 07:03:22 AM 45.2670 13.7360 127° Southeast 466 536 35,000  Level FlightAware ADS-B
Tue 07:04:02 AM 45.2120 13.8330 129° Southeast 465 535 35,000  Level FlightAware ADS-B
Tue 07:04:47 AM 45.1520 13.9390 129° Southeast 465 535 35,000  Level FlightAware ADS-B
Tue 07:05:27 AM 45.1040 14.0260 128° Southeast 464 534 35,000  Level FlightAware ADS-B
Tue 07:06:22 AM 45.0260 14.1650 128° Southeast 464 534 35,000  Level FlightAware ADS-B
Tue 07:07:07 AM 44.9670 14.2710 128° Southeast 463 533 35,000  Level FlightAware ADS-B
Tue 07:07:47 AM 44.9120 14.3690 128° Southeast 462 532 35,000  Level FlightAware ADS-B
Tue 07:08:27 AM 44.8590 14.4610 129° Southeast 463 533 35,000  Level FlightAware ADS-B
Tue 07:09:07 AM 44.8090 14.5500 128° Southeast 462 532 35,000  Level FlightAware ADS-B
Tue 07:09:52 AM 44.7430 14.6660 129° Southeast 464 534 35,000  Level FlightAware ADS-B
Tue 07:10:32 AM 44.6880 14.7610 129° Southeast 465 535 35,000  Level FlightAware ADS-B
Tue 07:11:17 AM 44.6290 14.8630 129° Southeast 465 535 35,000  Level FlightAware ADS-B
Tue 07:12:02 AM 44.5750 14.9570 129° Southeast 465 535 35,000  Level FlightAware ADS-B
Tue 07:12:42 AM 44.5180 15.0560 129° Southeast 465 535 35,000  Level FlightAware ADS-B
Tue 07:13:22 AM 44.4610 15.1550 129° Southeast 466 536 35,000  Level FlightAware ADS-B
Tue 07:14:02 AM 44.4060 15.2480 130° Southeast 466 536 35,000  Level FlightAware ADS-B
Tue 07:14:47 AM 44.3480 15.3480 129° Southeast 466 536 35,000  Level FlightAware ADS-B
Tue 07:15:27 AM 44.2890 15.4500 129° Southeast 466 536 35,000  Level FlightAware ADS-B
Tue 07:16:12 AM 44.2260 15.5570 129° Southeast 462 532 35,000  Level FlightAware ADS-B
Tue 07:16:52 AM 44.1730 15.6480 129° Southeast 462 532 35,000  Level FlightAware ADS-B
Tue 07:17:32 AM 44.1170 15.7430 129° Southeast 462 532 35,000  Level FlightAware ADS-B
Tue 07:18:17 AM 44.0560 15.8470 129° Southeast 462 532 35,000  Level FlightAware ADS-B
Tue 07:18:57 AM 44.0030 15.9360 130° Southeast 462 532 35,000  Level FlightAware ADS-B
Tue 07:19:42 AM 43.9390 16.0450 129° Southeast 461 531 35,000  Level FlightAware ADS-B
Tue 07:20:27 AM 43.8770 16.1480 130° Southeast 462 532 35,000  Level FlightAware ADS-B
Tue 07:21:07 AM 43.8220 16.2390 130° Southeast 460 529 35,000  Level FlightAware ADS-B
Tue 07:21:52 AM 43.7620 16.3400 129° Southeast 460 529 35,000  Level FlightAware ADS-B
Tue 07:22:32 AM 43.7060 16.4340 129° Southeast 461 531 35,000  Level FlightAware ADS-B
Tue 07:23:12 AM 43.6500 16.5260 130° Southeast 461 531 35,000  Level FlightAware ADS-B
Tue 07:23:57 AM 43.5870 16.6310 130° Southeast 462 532 35,000  Level FlightAware ADS-B
Tue 07:24:37 AM 43.5320 16.7220 130° Southeast 464 534 35,000  Level FlightAware ADS-B
Tue 07:25:22 AM 43.4690 16.8250 130° Southeast 462 532 35,000  Level FlightAware ADS-B
Tue 07:26:02 AM 43.4130 16.9170 130° Southeast 461 531 35,000  Level FlightAware ADS-B
Tue 07:26:42 AM 43.3580 17.0070 130° Southeast 459 528 35,000  Level FlightAware ADS-B
Tue 07:27:27 AM 43.2970 17.1070 130° Southeast 457 526 35,000  Level FlightAware ADS-B
Tue 07:28:07 AM 43.2420 17.1960 130° Southeast 458 527 35,000  Level FlightAware ADS-B
Tue 07:28:47 AM 43.1860 17.2880 130° Southeast 459 528 35,000  Level FlightAware ADS-B
Tue 07:29:32 AM 43.1240 17.3880 130° Southeast 460 529 35,000  Level FlightAware ADS-B
Tue 07:30:12 AM 43.0680 17.4790 130° Southeast 462 532 35,000  Level FlightAware ADS-B
Tue 07:30:57 AM 43.0060 17.5800 130° Southeast 472 543 35,000  Level FlightAware ADS-B
Tue 07:31:37 AM 42.9500 17.6690 131° Southeast 473 544 35,000  Level FlightAware ADS-B
Tue 07:32:22 AM 42.8860 17.7730 130° Southeast 476 548 35,000  Level FlightAware ADS-B
Tue 07:33:02 AM 42.8270 17.8670 131° Southeast 476 548 35,000  Level FlightAware ADS-B
Tue 07:33:42 AM 42.7700 17.9580 130° Southeast 475 547 35,000  Level FlightAware ADS-B
Tue 07:34:27 AM 42.7060 18.0600 130° Southeast 476 548 35,000  Level FlightAware ADS-B
Tue 07:35:07 AM 42.6460 18.1550 131° Southeast 476 548 35,000  Level FlightAware ADS-B
Tue 07:35:52 AM 42.5840 18.2530 131° Southeast 475 547 35,000  Level FlightAware ADS-B
Tue 07:36:32 AM 42.5230 18.3400 134° Southeast 473 544 35,000  Level FlightAware ADS-B
Tue 07:37:12 AM 42.4620 18.4230 135° Southeast 474 545 35,000  Level FlightAware ADS-B
Tue 07:37:57 AM 42.3890 18.5170 136° Southeast 471 542 35,000  Level FlightAware ADS-B
Tue 07:38:37 AM 42.3250 18.5990 137° Southeast 471 542 35,000 212 Level FlightAware ADS-B
Tue 07:39:22 AM 42.2580 18.6850 136° Southeast 470 541 35,300 988 Climbing FlightAware ADS-B
Tue 07:40:02 AM 42.1960 18.7650 136° Southeast 464 534 36,400 1,275 Climbing FlightAware ADS-B
Tue 07:40:42 AM 42.1310 18.8490 136° Southeast 462 532 37,000 424 Climbing FlightAware ADS-B
Tue 07:41:27 AM 42.0600 18.9390 137° Southeast 460 529 37,000  Level FlightAware ADS-B
Tue 07:42:07 AM 41.9980 19.0190 136° Southeast 460 529 37,000  Level FlightAware ADS-B
Tue 07:42:52 AM 41.9350 19.0990 137° Southeast 460 529 37,000  Level FlightAware ADS-B
Tue 07:43:32 AM 41.8680 19.1840 137° Southeast 462 532 37,000  Level FlightAware ADS-B
Tue 07:44:12 AM 41.8060 19.2630 136° Southeast 464 534 37,000  Level FlightAware ADS-B
Tue 07:44:57 AM 41.7340 19.3540 137° Southeast 466 536 37,000  Level FlightAware ADS-B
Tue 07:45:37 AM 41.6700 19.4330 137° Southeast 467 537 37,000  Level FlightAware ADS-B
Tue 07:46:22 AM 41.6000 19.5200 137° Southeast 469 540 37,000  Level FlightAware ADS-B
Tue 07:46:52 AM 41.5540 19.5780 137° Southeast 471 542 37,000  Level FlightAware ADS-B
Tue 07:47:42 AM 41.4730 19.6790 137° Southeast 472 543 37,000  Level FlightAware ADS-B
Tue 07:48:27 AM 41.4020 19.7690 136° Southeast 475 547 37,000  Level FlightAware ADS-B
Tue 07:49:07 AM 41.3430 19.8510 134° Southeast 476 548 37,000  Level FlightAware ADS-B
Tue 07:49:52 AM 41.2710 19.9500 134° Southeast 476 548 37,000  Level FlightAware ADS-B
Tue 07:50:32 AM 41.2080 20.0350 135° Southeast 475 547 37,000  Level FlightAware ADS-B
Tue 07:51:12 AM 41.1480 20.1150 135° Southeast 475 547 37,000  Level FlightAware ADS-B
Tue 07:51:57 AM 41.0800 20.2060 135° Southeast 475 547 37,000  Level FlightAware ADS-B
Tue 07:52:37 AM 41.0180 20.2900 134° Southeast 476 548 37,000  Level FlightAware ADS-B
Tue 07:53:17 AM 40.9550 20.3730 135° Southeast 476 548 37,000  Level FlightAware ADS-B
Tue 07:54:02 AM 40.8830 20.4680 135° Southeast 476 548 37,000  Level FlightAware ADS-B
Tue 07:54:42 AM 40.8210 20.5500 135° Southeast 476 548 37,000  Level FlightAware ADS-B
Tue 07:55:27 AM 40.7520 20.6410 135° Southeast 478 550 37,000  Level FlightAware ADS-B
Tue 07:56:07 AM 40.6900 20.7220 135° Southeast 479 551 37,000  Level FlightAware ADS-B
Tue 07:56:47 AM 40.6560 20.7670 135° Southeast 480 552 37,000  Level FlightAware ADS-B
Tue 07:57:27 AM 40.5880 20.8550 135° Southeast 481 554 37,000  Level FlightAware ADS-B
Tue 07:58:07 AM 40.5240 20.9370 136° Southeast 481 554 37,000  Level FlightAware ADS-B
Tue 07:58:57 AM 40.4530 21.0240 137° Southeast 482 555 37,000  Level FlightAware ADS-B
Tue 07:59:27 AM 40.3980 21.0890 138° Southeast 482 555 37,000  Level FlightAware ADS-B
Tue 08:00:17 AM 40.2850 21.2250 137° Southeast 484 557 37,000  Level FlightAware ADS-B
Tue 08:01:02 AM 40.2160 21.3090 137° Southeast 484 557 37,000  Level FlightAware ADS-B
Tue 08:01:42 AM 40.1600 21.3770 137° Southeast 484 557 37,000  Level FlightAware ADS-B
Tue 08:02:37 AM 40.0530 21.5030 138° Southeast 491 565 37,000  Level FlightAware ADS-B
Tue 08:03:22 AM 39.9760 21.5950 138° Southeast 492 566 37,000  Level FlightAware ADS-B
Tue 08:04:02 AM 39.9080 21.6760 138° Southeast 494 568 37,000  Level FlightAware ADS-B
Tue 08:04:47 AM 39.8340 21.7630 138° Southeast 494 568 37,000  Level FlightAware ADS-B
Tue 08:05:27 AM 39.7640 21.8440 138° Southeast 494 568 37,000  Level FlightAware ADS-B
Tue 08:06:07 AM 39.6960 21.9220 139° Southeast 493 567 37,000  Level FlightAware ADS-B
Tue 08:06:52 AM 39.6180 22.0120 138° Southeast 492 566 37,000  Level FlightAware ADS-B
Tue 08:07:32 AM 39.5500 22.0900 138° Southeast 490 564 37,000  Level FlightAware ADS-B
Tue 08:08:17 AM 39.4740 22.1770 139° Southeast 489 563 37,000  Level FlightAware ADS-B
Tue 08:08:57 AM 39.4070 22.2540 138° Southeast 489 563 37,000  Level FlightAware ADS-B
Tue 08:09:37 AM 39.3400 22.3310 138° Southeast 488 562 37,000  Level FlightAware ADS-B
Tue 08:10:22 AM 39.2620 22.4200 139° Southeast 486 559 37,000  Level FlightAware ADS-B
Tue 08:11:02 AM 39.1930 22.4980 139° Southeast 486 559 37,000  Level FlightAware ADS-B
Tue 08:11:47 AM 39.1210 22.5800 139° Southeast 487 560 37,000  Level FlightAware ADS-B
Tue 08:12:27 AM 39.0520 22.6570 139° Southeast 488 562 37,000  Level FlightAware ADS-B
Tue 08:13:07 AM 38.9840 22.7340 139° Southeast 490 564 37,000  Level FlightAware ADS-B
Tue 08:13:52 AM 38.9050 22.8240 138° Southeast 492 566 37,000  Level FlightAware ADS-B
Tue 08:14:32 AM 38.8350 22.9010 139° Southeast 494 568 37,000  Level FlightAware ADS-B
Tue 08:15:17 AM 38.7610 22.9850 138° Southeast 496 571 37,000  Level FlightAware ADS-B
Tue 08:15:57 AM 38.6910 23.0620 139° Southeast 499 574 37,000  Level FlightAware ADS-B
Tue 08:16:37 AM 38.6200 23.1400 139° Southeast 501 577 37,000  Level FlightAware ADS-B
Tue 08:17:22 AM 38.5390 23.2290 139° Southeast 502 578 37,000  Level FlightAware ADS-B
Tue 08:18:02 AM 38.4700 23.3060 139° Southeast 504 580 37,000  Level FlightAware ADS-B
Tue 08:18:47 AM 38.3920 23.3920 139° Southeast 506 582 37,000  Level FlightAware ADS-B
Tue 08:19:27 AM 38.3210 23.4700 139° Southeast 507 583 37,000  Level FlightAware ADS-B
Tue 08:20:12 AM 38.2380 23.5610 139° Southeast 509 586 37,000  Level FlightAware ADS-B
Tue 08:20:52 AM 38.1690 23.6360 139° Southeast 511 588 37,000  Level FlightAware ADS-B
Tue 08:21:32 AM 38.0970 23.7150 139° Southeast 512 589 37,000  Level FlightAware ADS-B
Tue 08:22:17 AM 38.0140 23.8060 139° Southeast 512 589 37,000  Level FlightAware ADS-B
Tue 08:22:57 AM 37.9430 23.8840 139° Southeast 512 589 37,000  Level FlightAware ADS-B
Tue 08:23:42 AM 37.8630 23.9700 140° Southeast 512 589 37,000  Level FlightAware ADS-B
Tue 08:24:22 AM 37.8020 24.0620 130° Southeast 509 586 37,000  Level FlightAware ADS-B
Tue 08:25:02 AM 37.7520 24.1600 123° Southeast 509 586 37,000  Level FlightAware ADS-B
Tue 08:25:47 AM 37.6940 24.2780 122° Southeast 509 586 37,000  Level FlightAware ADS-B
Tue 08:26:27 AM 37.6430 24.3790 123° Southeast 508 585 37,000  Level FlightAware ADS-B
Tue 08:27:07 AM 37.5940 24.4760 122° Southeast 507 583 37,000  Level FlightAware ADS-B
Tue 08:27:52 AM 37.5370 24.5870 123° Southeast 506 582 37,000  Level FlightAware ADS-B
Tue 08:28:32 AM 37.4870 24.6860 122° Southeast 506 582 37,000  Level FlightAware ADS-B
Tue 08:29:12 AM 37.4360 24.7840 123° Southeast 506 582 37,000  Level FlightAware ADS-B
Tue 08:29:57 AM 37.3780 24.8980 123° Southeast 505 581 37,000  Level FlightAware ADS-B
Tue 08:30:37 AM 37.3260 24.9970 123° Southeast 506 582 37,000  Level FlightAware ADS-B
Tue 08:31:22 AM 37.2700 25.1050 123° Southeast 507 583 37,000  Level FlightAware ADS-B
Tue 08:32:02 AM 37.2190 25.2030 123° Southeast 507 583 37,000  Level FlightAware ADS-B
Tue 08:32:47 AM 37.1600 25.3160 123° Southeast 507 583 37,000  Level FlightAware ADS-B
Tue 08:33:27 AM 37.1090 25.4160 123° Southeast 508 585 37,000  Level FlightAware ADS-B
Tue 08:34:07 AM 37.0580 25.5130 123° Southeast 506 582 37,000  Level FlightAware ADS-B
Tue 08:34:52 AM 37.0010 25.6230 123° Southeast 505 581 37,000  Level FlightAware ADS-B
Tue 08:35:32 AM 36.9500 25.7200 123° Southeast 504 580 37,000  Level FlightAware ADS-B
Tue 08:36:17 AM 36.8910 25.8320 123° Southeast 504 580 37,000  Level FlightAware ADS-B
Tue 08:36:47 AM 36.8520 25.9070 123° Southeast 505 581 37,000  Level FlightAware ADS-B
Tue 08:37:37 AM 36.7900 26.0250 123° Southeast 505 581 37,000  Level FlightAware ADS-B
Tue 08:38:22 AM 36.7300 26.1390 123° Southeast 506 582 37,000  Level FlightAware ADS-B
Tue 08:39:02 AM 36.6830 26.2280 123° Southeast 507 583 37,000  Level FlightAware ADS-B
Tue 08:39:47 AM 36.6220 26.3440 123° Southeast 506 582 37,000  Level FlightAware ADS-B
Tue 08:40:27 AM 36.5710 26.4400 123° Southeast 506 582 37,000  Level FlightAware ADS-B
Tue 08:41:12 AM 36.5130 26.5490 123° Southeast 507 583 37,000  Level FlightAware ADS-B
Tue 08:41:52 AM 36.4610 26.6460 124° Southeast 506 582 37,000  Level FlightAware ADS-B
Tue 08:42:37 AM 36.4030 26.7560 123° Southeast 504 580 37,000  Level FlightAware ADS-B
Tue 08:43:12 AM 36.3610 26.8330 124° Southeast 503 579 37,000  Level FlightAware ADS-B
Tue 08:44:12 AM 36.2840 26.9790 123° Southeast 502 578 37,000  Level FlightAware ADS-B
Tue 08:44:52 AM 36.2290 27.0790 124° Southeast 499 574 37,000  Level FlightAware ADS-B
Tue 08:45:37 AM 36.1720 27.1850 124° Southeast 499 574 37,000  Level FlightAware ADS-B
Tue 08:46:17 AM 36.1210 27.2800 124° Southeast 500 575 37,000  Level FlightAware ADS-B
Tue 08:46:57 AM 36.0740 27.3680 123° Southeast 500 575 37,000  Level FlightAware ADS-B
Tue 08:47:37 AM 36.0310 27.4500 123° Southeast 500 575 37,000  Level FlightAware ADS-B
Tue 08:48:27 AM 35.9780 27.5520 123° Southeast 500 575 37,000  Level FlightAware ADS-B
Tue 08:49:02 AM 35.9120 27.6650 126° Southeast 499 574 37,000  Level FlightAware ADS-B
Tue 08:49:42 AM 35.8690 27.7470 123° Southeast 499 574 37,000  Level FlightAware ADS-B
Tue 08:50:22 AM 35.8050 27.8590 125° Southeast 499 574 37,000  Level FlightAware ADS-B
Tue 08:51:12 AM 35.7430 27.9720 124° Southeast 501 577 37,000  Level FlightAware ADS-B
Tue 08:51:52 AM 35.6860 28.0760 124° Southeast 502 578 37,000  Level FlightAware ADS-B
Tue 08:52:32 AM 35.6330 28.1710 124° Southeast 504 580 37,000  Level FlightAware ADS-B
Tue 08:53:17 AM 35.5770 28.2730 124° Southeast 503 579 37,000  Level FlightAware ADS-B
Tue 08:54:02 AM 35.5160 28.3830 124° Southeast 503 579 37,000  Level FlightAware ADS-B
Tue 08:54:42 AM 35.4630 28.4780 124° Southeast 503 579 37,000  Level FlightAware ADS-B
Tue 08:55:22 AM 35.4100 28.5730 124° Southeast 503 579 37,000  Level FlightAware ADS-B
Tue 08:56:07 AM 35.3550 28.6730 124° Southeast 503 579 37,000  Level FlightAware ADS-B
Tue 08:56:47 AM 35.3010 28.7700 124° Southeast 504 580 37,000  Level FlightAware ADS-B
Tue 08:57:32 AM 35.2390 28.8790 125° Southeast 503 579 37,000  Level FlightAware ADS-B
Tue 08:58:12 AM 35.1870 28.9720 124° Southeast 504 580 37,000  Level FlightAware ADS-B
Tue 08:59:07 AM 35.1200 29.0920 124° Southeast 503 579 37,000  Level FlightAware ADS-B
Tue 08:59:47 AM 35.0760 29.1720 124° Southeast 503 579 37,000  Level FlightAware ADS-B
Tue 09:00:32 AM 35.0040 29.2970 125° Southeast 503 579 37,000  Level FlightAware ADS-B
Tue 09:01:12 AM 34.9550 29.3850 124° Southeast 503 579 37,000  Level FlightAware ADS-B
Tue 09:01:52 AM 34.9110 29.4650 124° Southeast 503 579 37,000  Level FlightAware ADS-B
Tue 09:02:32 AM 34.8670 29.5450 124° Southeast 503 579 37,000  Level FlightAware ADS-B
Tue 09:03:22 AM 34.8110 29.6450 124° Southeast 503 579 37,000  Level FlightAware ADS-B
Tue 09:04:02 AM 34.7670 29.7240 124° Southeast 503 579 37,000  Level FlightAware ADS-B
Tue 09:04:42 AM 34.7230 29.8040 124° Southeast 503 579 37,000  Level FlightAware ADS-B
Tue 09:05:22 AM 34.6790 29.8840 124° Southeast 503 579 37,000  Level FlightAware ADS-B
Tue 09:06:02 AM 34.6340 29.9640 124° Southeast 503 579 37,000  Level FlightAware ADS-B
Tue 09:06:52 AM 34.5790 30.0630 124° Southeast 503 579 37,000  Level FlightAware ADS-B
Tue 09:07:32 AM 34.5350 30.1430 124° Southeast 503 579 37,000  Level FlightAware ADS-B
Tue 09:08:12 AM 34.4910 30.2230 124° Southeast 503 579 37,000  Level FlightAware ADS-B
Tue 09:08:52 AM 34.4460 30.3020 125° Southeast 503 579 37,000  Level FlightAware ADS-B
Tue 09:09:37 AM 34.4020 30.3820 124° Southeast 503 579 37,000  Level FlightAware ADS-B
Tue 09:10:22 AM 34.3470 30.4810 124° Southeast 503 579 37,000  Level FlightAware ADS-B
Tue 09:11:02 AM 34.2380 30.7870 113° Southeast 494 568 37,000  Level FlightAware ADS-B
Tue 09:11:42 AM 34.1990 30.8680 120° Southeast 494 568 37,000  Level FlightAware ADS-B
Tue 09:12:22 AM 34.1600 30.9490 120° Southeast 494 568 37,000  Level FlightAware ADS-B
Tue 09:13:02 AM 34.0950 31.0800 121° Southeast 496 571 37,000  Level FlightAware ADS-B
Tue 09:13:47 AM 34.0400 31.1910 121° Southeast 495 570 37,000  Level FlightAware ADS-B
Tue 09:14:32 AM 33.9900 31.2940 120° Southeast 496 571 37,000  Level FlightAware ADS-B
Tue 09:15:12 AM 33.9460 31.3860 120° Southeast 496 571 37,000  Level FlightAware ADS-B
Tue 09:15:57 AM 33.8890 31.5000 121° Southeast 498 573 37,000  Level FlightAware ADS-B
Tue 09:16:47 AM 33.8330 31.6160 120° Southeast 497 572 37,000  Level FlightAware ADS-B
Tue 09:17:32 AM 33.7800 31.7220 121° Southeast 496 571 37,000  Level FlightAware ADS-B
Tue 09:18:12 AM 33.7330 31.8170 121° Southeast 495 570 37,000  Level FlightAware ADS-B
Tue 09:18:57 AM 33.6770 31.9280 121° Southeast 495 570 37,000  Level FlightAware ADS-B
Tue 09:19:37 AM 33.6340 32.0130 121° Southeast 494 568 37,000  Level FlightAware ADS-B
Tue 09:20:17 AM 33.5840 32.1140 121° Southeast 493 567 37,000  Level FlightAware ADS-B
Tue 09:21:02 AM 33.5290 32.2240 121° Southeast 494 568 37,000  Level FlightAware ADS-B
Tue 09:21:42 AM 33.4840 32.3150 121° Southeast 493 567 37,000  Level FlightAware ADS-B
Tue 09:22:27 AM 33.4310 32.4200 121° Southeast 493 567 37,000  Level FlightAware ADS-B
Tue 09:23:02 AM 33.3900 32.5010 121° Southeast 492 566 37,000 -353 Level FlightAware ADS-B
Tue 09:23:52 AM 33.3290 32.6190 122° Southeast 493 567 36,500 -1,267 Descending FlightAware ADS-B
Tue 09:24:32 AM 33.2810 32.7130 121° Southeast 484 557 35,100 -1,425 Descending FlightAware ADS-B
Tue 09:25:12 AM 33.2380 32.7960 122° Southeast 478 550 34,600 -1,920 Descending FlightAware ADS-B
Tue 09:25:47 AM 33.1970 32.8750 122° Southeast 460 529 32,700 -2,541 Descending FlightAware ADS-B
Tue 09:26:37 AM 33.1410 32.9820 122° Southeast 449 517 31,000 -2,067 Descending FlightAware ADS-B
Tue 09:27:17 AM 33.0970 33.0670 122° Southeast 438 504 29,600 -2,047 Descending FlightAware ADS-B
Tue 09:28:02 AM 33.0500 33.1580 122° Southeast 426 490 28,100 -2,200 Descending FlightAware ADS-B
Tue 09:28:47 AM 33.0060 33.2410 122° Southeast 421 484 26,300 -2,550 Descending FlightAware ADS-B
Tue 09:29:22 AM 32.9660 33.3160 122° Southeast 413 475 24,700 -2,160 Descending FlightAware ADS-B
Tue 09:30:02 AM 32.9280 33.3900 121° Southeast 394 453 23,600 -1,600 Descending FlightAware ADS-B
Tue 09:30:52 AM 32.8830 33.4750 122° Southeast 376 433 22,300 -1,667 Descending FlightAware ADS-B
Tue 09:31:32 AM 32.8440 33.5490 122° Southeast 362 417 21,100 -1,694 Descending FlightAware ADS-B
Tue 09:32:17 AM 32.8050 33.6230 122° Southeast 357 411 19,900 -1,624 Descending FlightAware ADS-B
Tue 09:32:57 AM 32.7690 33.6910 122° Southeast 367 422 18,800 -1,650 Descending FlightAware ADS-B
Tue 09:33:37 AM 32.7330 33.7590 122° Southeast 352 405 17,700 -1,624 Descending FlightAware ADS-B
Tue 09:34:22 AM 32.6940 33.8320 122° Southeast 338 389 16,500 -1,533 Descending FlightAware ADS-B
Tue 09:35:07 AM 32.6570 33.9000 123° Southeast 340 391 15,400 -1,482 Descending FlightAware ADS-B
Tue 09:35:47 AM 32.6220 33.9640 123° Southeast 338 389 14,400 -1,500 Descending FlightAware ADS-B
Tue 09:36:27 AM 32.5900 34.0220 123° Southeast 327 376 13,400 -1,482 Descending FlightAware ADS-B
Tue 09:37:12 AM 32.5520 34.0930 122° Southeast 314 361 12,300 -1,412 Descending FlightAware ADS-B
Tue 09:37:52 AM 32.5180 34.1500 125° Southeast 324 373 11,400 -1,341 Descending FlightAware ADS-B
Tue 09:38:37 AM 32.4710 34.2050 135° Southeast 309 356 10,400 -918 Descending FlightAware ADS-B
Tue 09:39:17 AM 32.4340 34.2500 134° Southeast 281 323 10,100 -738 Descending FlightAware ADS-B
Tue 09:39:42 AM 32.4100 34.2780 135° Southeast 276 318 9,600 -1,200 Descending FlightAware ADS-B
Tue 09:40:12 AM 32.3830 34.3100 135° Southeast 276 318 9,000 -1,067 Descending FlightAware ADS-B
Tue 09:40:27 AM 32.3700 34.3250 136° Southeast 276 318 8,800 -480 Descending FlightAware ADS-B
Tue 09:41:02 AM 32.3390 34.3600 136° Southeast 275 316 8,600 -218 Descending FlightAware ADS-B
Tue 09:41:22 AM 32.3240 34.3780 135° Southeast 275 316 8,600  Level FlightAware ADS-B
Tue 09:41:52 AM 32.3000 34.4040 138° Southeast 275 316 8,600  Level FlightAware ADS-B
Tue 09:42:12 AM 32.2850 34.4220 135° Southeast 275 316 8,600  Level FlightAware ADS-B
Tue 09:42:32 AM 32.2690 34.4400 136° Southeast 275 316 8,600  Level FlightAware ADS-B
Tue 09:45:00 AM 32.0611 34.7557 115° Southeast  Level FlightAware Approximate
Tue 09:46:00 AM 32.0000 34.8667 125° Southeast  Level FlightAware Approximate
Tue 09:47:00 AM 32.0095 34.8769 125° Southeast  Level Estimated
Tue 09:48:00 AM 32.0095 34.8769 125° Southeast  Level Estimated
Tue 09:49:00 AM 32.0095 34.8769 125° Southeast  Level Estimated
Tue 09:50:00 AM 32.0095 34.8769 125° Southeast  Level Estimated
Tue 09:51:00 AM 32.0095 34.8769 125° Southeast  Level Estimated
Tue 09:52:00 AM 32.0095 34.8769 125° Southeast  Level Estimated
Tue 09:53:00 AM 32.0095 34.8769 125° Southeast  Level Estimated

Login

Don't have an account? Register now (free) for customized features, flight alerts, and more!